<?xml version="1.0" encoding="UTF-8" standalone="no" ?>
<gpx xmlns="http://www.topografix.com/GPX/1/1" xmlns:xsi="http://www.w3.org/2001/XMLSchema-instance" xsi:schemaLocation="http://www.topografix.com/GPX/1/1 http://www.topografix.com/GPX/1/1/gpx.xsd" version="1.1" creator="VisuGPX - https://www.visugpx.com">
  <metadata>
    <name>Petite boucle</name>
  </metadata>
  <trk>
    <name><![CDATA[2022 07 23 petite boucle]]></name>
    <trkseg>
      <trkpt lat="45.83314" lon="4.70916">
        <ele>307.24547</ele>
        <time>2022-07-23T18:44:50.000Z</time>
      </trkpt>
      <trkpt lat="45.83317" lon="4.70917">
        <ele>307.04871</ele>
        <time>2022-07-23T18:45:58.000Z</time>
      </trkpt>
      <trkpt lat="45.83319" lon="4.70918">
        <ele>306.92402</ele>
        <time>2022-07-23T18:46:00.000Z</time>
      </trkpt>
      <trkpt lat="45.83321" lon="4.70914">
        <ele>306.85125</ele>
        <time>2022-07-23T18:46:04.000Z</time>
      </trkpt>
      <trkpt lat="45.83323" lon="4.7091">
        <ele>306.83948</ele>
        <time>2022-07-23T18:46:05.000Z</time>
      </trkpt>
      <trkpt lat="45.83325" lon="4.70897">
        <ele>306.8432</ele>
        <time>2022-07-23T18:46:06.000Z</time>
      </trkpt>
      <trkpt lat="45.83328" lon="4.70892">
        <ele>306.7832</ele>
        <time>2022-07-23T18:46:07.000Z</time>
      </trkpt>
      <trkpt lat="45.8333" lon="4.70883">
        <ele>306.86588</ele>
        <time>2022-07-23T18:46:08.000Z</time>
      </trkpt>
      <trkpt lat="45.8333" lon="4.70878">
        <ele>307.01402</ele>
        <time>2022-07-23T18:46:09.000Z</time>
      </trkpt>
      <trkpt lat="45.8333" lon="4.70871">
        <ele>307.19993</ele>
        <time>2022-07-23T18:46:10.000Z</time>
      </trkpt>
      <trkpt lat="45.83329" lon="4.70864">
        <ele>307.42074</ele>
        <time>2022-07-23T18:46:11.000Z</time>
      </trkpt>
      <trkpt lat="45.83333" lon="4.70856">
        <ele>307.41933</ele>
        <time>2022-07-23T18:46:12.000Z</time>
      </trkpt>
      <trkpt lat="45.83335" lon="4.70849">
        <ele>307.45612</ele>
        <time>2022-07-23T18:46:13.000Z</time>
      </trkpt>
      <trkpt lat="45.83337" lon="4.70841">
        <ele>307.54786</ele>
        <time>2022-07-23T18:46:14.000Z</time>
      </trkpt>
      <trkpt lat="45.83338" lon="4.70834">
        <ele>307.62721</ele>
        <time>2022-07-23T18:46:15.000Z</time>
      </trkpt>
      <trkpt lat="45.83337" lon="4.70827">
        <ele>307.80316</ele>
        <time>2022-07-23T18:46:16.000Z</time>
      </trkpt>
      <trkpt lat="45.83337" lon="4.7082">
        <ele>307.92503</ele>
        <time>2022-07-23T18:46:17.000Z</time>
      </trkpt>
      <trkpt lat="45.83337" lon="4.70814">
        <ele>307.99397</ele>
        <time>2022-07-23T18:46:18.000Z</time>
      </trkpt>
      <trkpt lat="45.83337" lon="4.70807">
        <ele>308.1054</ele>
        <time>2022-07-23T18:46:19.000Z</time>
      </trkpt>
      <trkpt lat="45.83338" lon="4.708">
        <ele>308.18609</ele>
        <time>2022-07-23T18:46:20.000Z</time>
      </trkpt>
      <trkpt lat="45.83339" lon="4.70789">
        <ele>308.29933</ele>
        <time>2022-07-23T18:46:21.000Z</time>
      </trkpt>
      <trkpt lat="45.83341" lon="4.7078">
        <ele>308.37661</ele>
        <time>2022-07-23T18:46:22.000Z</time>
      </trkpt>
      <trkpt lat="45.83341" lon="4.70772">
        <ele>308.48227</ele>
        <time>2022-07-23T18:46:23.000Z</time>
      </trkpt>
      <trkpt lat="45.83343" lon="4.70764">
        <ele>308.53486</ele>
        <time>2022-07-23T18:46:24.000Z</time>
      </trkpt>
      <trkpt lat="45.83343" lon="4.70757">
        <ele>308.59466</ele>
        <time>2022-07-23T18:46:25.000Z</time>
      </trkpt>
      <trkpt lat="45.83344" lon="4.70749">
        <ele>308.66208</ele>
        <time>2022-07-23T18:46:26.000Z</time>
      </trkpt>
      <trkpt lat="45.83342" lon="4.70744">
        <ele>308.74054</ele>
        <time>2022-07-23T18:46:27.000Z</time>
      </trkpt>
      <trkpt lat="45.83343" lon="4.70738">
        <ele>308.77271</ele>
        <time>2022-07-23T18:46:28.000Z</time>
      </trkpt>
      <trkpt lat="45.83345" lon="4.70732">
        <ele>308.72862</ele>
        <time>2022-07-23T18:46:29.000Z</time>
      </trkpt>
      <trkpt lat="45.83343" lon="4.70724">
        <ele>308.8465</ele>
        <time>2022-07-23T18:46:30.000Z</time>
      </trkpt>
      <trkpt lat="45.83341" lon="4.70716">
        <ele>308.97869</ele>
        <time>2022-07-23T18:46:31.000Z</time>
      </trkpt>
      <trkpt lat="45.83342" lon="4.70707">
        <ele>308.94599</ele>
        <time>2022-07-23T18:46:32.000Z</time>
      </trkpt>
      <trkpt lat="45.83341" lon="4.707">
        <ele>308.96126</ele>
        <time>2022-07-23T18:46:33.000Z</time>
      </trkpt>
      <trkpt lat="45.83342" lon="4.70692">
        <ele>308.77698</ele>
        <time>2022-07-23T18:46:34.000Z</time>
      </trkpt>
      <trkpt lat="45.83342" lon="4.70682">
        <ele>308.47169</ele>
        <time>2022-07-23T18:46:35.000Z</time>
      </trkpt>
      <trkpt lat="45.83344" lon="4.70672">
        <ele>308.05191</ele>
        <time>2022-07-23T18:46:36.000Z</time>
      </trkpt>
      <trkpt lat="45.83344" lon="4.70663">
        <ele>307.77776</ele>
        <time>2022-07-23T18:46:37.000Z</time>
      </trkpt>
      <trkpt lat="45.83344" lon="4.70651">
        <ele>307.37775</ele>
        <time>2022-07-23T18:46:38.000Z</time>
      </trkpt>
      <trkpt lat="45.83341" lon="4.70642">
        <ele>307.33762</ele>
        <time>2022-07-23T18:46:39.000Z</time>
      </trkpt>
      <trkpt lat="45.83341" lon="4.70633">
        <ele>307.13168</ele>
        <time>2022-07-23T18:46:40.000Z</time>
      </trkpt>
      <trkpt lat="45.83343" lon="4.70626">
        <ele>306.94786</ele>
        <time>2022-07-23T18:46:41.000Z</time>
      </trkpt>
      <trkpt lat="45.83346" lon="4.70621">
        <ele>306.79953</ele>
        <time>2022-07-23T18:46:42.000Z</time>
      </trkpt>
      <trkpt lat="45.83351" lon="4.70615">
        <ele>306.64462</ele>
        <time>2022-07-23T18:46:43.000Z</time>
      </trkpt>
      <trkpt lat="45.83357" lon="4.70612">
        <ele>306.48411</ele>
        <time>2022-07-23T18:46:44.000Z</time>
      </trkpt>
      <trkpt lat="45.83363" lon="4.70614">
        <ele>306.26333</ele>
        <time>2022-07-23T18:46:45.000Z</time>
      </trkpt>
      <trkpt lat="45.83369" lon="4.70614">
        <ele>305.97945</ele>
        <time>2022-07-23T18:46:46.000Z</time>
      </trkpt>
      <trkpt lat="45.83375" lon="4.70615">
        <ele>305.69218</ele>
        <time>2022-07-23T18:46:47.000Z</time>
      </trkpt>
      <trkpt lat="45.83381" lon="4.70614">
        <ele>305.35123</ele>
        <time>2022-07-23T18:46:48.000Z</time>
      </trkpt>
      <trkpt lat="45.83389" lon="4.70614">
        <ele>304.89941</ele>
        <time>2022-07-23T18:46:49.000Z</time>
      </trkpt>
      <trkpt lat="45.83398" lon="4.70615">
        <ele>304.35296</ele>
        <time>2022-07-23T18:46:50.000Z</time>
      </trkpt>
      <trkpt lat="45.83405" lon="4.70614">
        <ele>303.9987</ele>
        <time>2022-07-23T18:46:51.000Z</time>
      </trkpt>
      <trkpt lat="45.83413" lon="4.70614">
        <ele>303.78719</ele>
        <time>2022-07-23T18:46:52.000Z</time>
      </trkpt>
      <trkpt lat="45.8342" lon="4.70613">
        <ele>303.67247</ele>
        <time>2022-07-23T18:46:53.000Z</time>
      </trkpt>
      <trkpt lat="45.83427" lon="4.70615">
        <ele>303.65296</ele>
        <time>2022-07-23T18:46:54.000Z</time>
      </trkpt>
      <trkpt lat="45.83432" lon="4.70616">
        <ele>303.621</ele>
        <time>2022-07-23T18:46:55.000Z</time>
      </trkpt>
      <trkpt lat="45.83438" lon="4.70617">
        <ele>303.62063</ele>
        <time>2022-07-23T18:46:56.000Z</time>
      </trkpt>
      <trkpt lat="45.83446" lon="4.70621">
        <ele>303.62152</ele>
        <time>2022-07-23T18:46:57.000Z</time>
      </trkpt>
      <trkpt lat="45.83452" lon="4.70622">
        <ele>303.46976</ele>
        <time>2022-07-23T18:46:58.000Z</time>
      </trkpt>
      <trkpt lat="45.83458" lon="4.70623">
        <ele>303.28298</ele>
        <time>2022-07-23T18:46:59.000Z</time>
      </trkpt>
      <trkpt lat="45.83466" lon="4.70621">
        <ele>302.94559</ele>
        <time>2022-07-23T18:47:00.000Z</time>
      </trkpt>
      <trkpt lat="45.83475" lon="4.70621">
        <ele>302.45616</ele>
        <time>2022-07-23T18:47:01.000Z</time>
      </trkpt>
      <trkpt lat="45.83483" lon="4.70619">
        <ele>301.85749</ele>
        <time>2022-07-23T18:47:02.000Z</time>
      </trkpt>
      <trkpt lat="45.83491" lon="4.70619">
        <ele>301.34627</ele>
        <time>2022-07-23T18:47:03.000Z</time>
      </trkpt>
      <trkpt lat="45.83499" lon="4.7062">
        <ele>300.78863</ele>
        <time>2022-07-23T18:47:04.000Z</time>
      </trkpt>
      <trkpt lat="45.83507" lon="4.70619">
        <ele>300.2262</ele>
        <time>2022-07-23T18:47:05.000Z</time>
      </trkpt>
      <trkpt lat="45.83515" lon="4.70618">
        <ele>299.69777</ele>
        <time>2022-07-23T18:47:06.000Z</time>
      </trkpt>
      <trkpt lat="45.83524" lon="4.70618">
        <ele>299.4292</ele>
        <time>2022-07-23T18:47:07.000Z</time>
      </trkpt>
      <trkpt lat="45.83532" lon="4.70617">
        <ele>299.32165</ele>
        <time>2022-07-23T18:47:08.000Z</time>
      </trkpt>
      <trkpt lat="45.83542" lon="4.70616">
        <ele>299.17692</ele>
        <time>2022-07-23T18:47:09.000Z</time>
      </trkpt>
      <trkpt lat="45.8355" lon="4.70617">
        <ele>299.1404</ele>
        <time>2022-07-23T18:47:10.000Z</time>
      </trkpt>
      <trkpt lat="45.83558" lon="4.70617">
        <ele>299.07103</ele>
        <time>2022-07-23T18:47:11.000Z</time>
      </trkpt>
      <trkpt lat="45.83567" lon="4.70617">
        <ele>298.8679</ele>
        <time>2022-07-23T18:47:12.000Z</time>
      </trkpt>
      <trkpt lat="45.83575" lon="4.70617">
        <ele>298.53268</ele>
        <time>2022-07-23T18:47:13.000Z</time>
      </trkpt>
      <trkpt lat="45.83584" lon="4.70618">
        <ele>298.25919</ele>
        <time>2022-07-23T18:47:14.000Z</time>
      </trkpt>
      <trkpt lat="45.83592" lon="4.7062">
        <ele>298.09575</ele>
        <time>2022-07-23T18:47:15.000Z</time>
      </trkpt>
      <trkpt lat="45.83599" lon="4.70623">
        <ele>297.97646</ele>
        <time>2022-07-23T18:47:16.000Z</time>
      </trkpt>
      <trkpt lat="45.83605" lon="4.70627">
        <ele>297.88095</ele>
        <time>2022-07-23T18:47:17.000Z</time>
      </trkpt>
      <trkpt lat="45.83611" lon="4.70631">
        <ele>297.77999</ele>
        <time>2022-07-23T18:47:18.000Z</time>
      </trkpt>
      <trkpt lat="45.83617" lon="4.70634">
        <ele>297.71146</ele>
        <time>2022-07-23T18:47:19.000Z</time>
      </trkpt>
      <trkpt lat="45.83624" lon="4.70633">
        <ele>297.5934</ele>
        <time>2022-07-23T18:47:20.000Z</time>
      </trkpt>
      <trkpt lat="45.8363" lon="4.7063">
        <ele>297.41213</ele>
        <time>2022-07-23T18:47:21.000Z</time>
      </trkpt>
      <trkpt lat="45.83636" lon="4.70626">
        <ele>297.27704</ele>
        <time>2022-07-23T18:47:22.000Z</time>
      </trkpt>
      <trkpt lat="45.83642" lon="4.70623">
        <ele>297.17495</ele>
        <time>2022-07-23T18:47:23.000Z</time>
      </trkpt>
      <trkpt lat="45.83648" lon="4.70619">
        <ele>296.99662</ele>
        <time>2022-07-23T18:47:24.000Z</time>
      </trkpt>
      <trkpt lat="45.83654" lon="4.70615">
        <ele>296.8236</ele>
        <time>2022-07-23T18:47:25.000Z</time>
      </trkpt>
      <trkpt lat="45.83661" lon="4.7061">
        <ele>296.6019</ele>
        <time>2022-07-23T18:47:26.000Z</time>
      </trkpt>
      <trkpt lat="45.83667" lon="4.70608">
        <ele>296.49153</ele>
        <time>2022-07-23T18:47:27.000Z</time>
      </trkpt>
      <trkpt lat="45.83674" lon="4.70605">
        <ele>296.34603</ele>
        <time>2022-07-23T18:47:28.000Z</time>
      </trkpt>
      <trkpt lat="45.8368" lon="4.70602">
        <ele>296.12382</ele>
        <time>2022-07-23T18:47:29.000Z</time>
      </trkpt>
      <trkpt lat="45.83686" lon="4.70601">
        <ele>295.96124</ele>
        <time>2022-07-23T18:47:30.000Z</time>
      </trkpt>
      <trkpt lat="45.83692" lon="4.706">
        <ele>295.74045</ele>
        <time>2022-07-23T18:47:31.000Z</time>
      </trkpt>
      <trkpt lat="45.83698" lon="4.706">
        <ele>295.66832</ele>
        <time>2022-07-23T18:47:32.000Z</time>
      </trkpt>
      <trkpt lat="45.83706" lon="4.70598">
        <ele>295.53557</ele>
        <time>2022-07-23T18:47:33.000Z</time>
      </trkpt>
      <trkpt lat="45.83713" lon="4.70597">
        <ele>295.48727</ele>
        <time>2022-07-23T18:47:34.000Z</time>
      </trkpt>
      <trkpt lat="45.83721" lon="4.70596">
        <ele>295.37596</ele>
        <time>2022-07-23T18:47:35.000Z</time>
      </trkpt>
      <trkpt lat="45.83728" lon="4.70594">
        <ele>295.18943</ele>
        <time>2022-07-23T18:47:36.000Z</time>
      </trkpt>
      <trkpt lat="45.83736" lon="4.70592">
        <ele>294.9281</ele>
        <time>2022-07-23T18:47:37.000Z</time>
      </trkpt>
      <trkpt lat="45.83743" lon="4.70589">
        <ele>294.54684</ele>
        <time>2022-07-23T18:47:38.000Z</time>
      </trkpt>
      <trkpt lat="45.83752" lon="4.70583">
        <ele>293.67386</ele>
        <time>2022-07-23T18:47:39.000Z</time>
      </trkpt>
      <trkpt lat="45.8376" lon="4.70579">
        <ele>292.86709</ele>
        <time>2022-07-23T18:47:40.000Z</time>
      </trkpt>
      <trkpt lat="45.83767" lon="4.70575">
        <ele>292.39949</ele>
        <time>2022-07-23T18:47:41.000Z</time>
      </trkpt>
      <trkpt lat="45.83776" lon="4.70571">
        <ele>292.00576</ele>
        <time>2022-07-23T18:47:42.000Z</time>
      </trkpt>
      <trkpt lat="45.83782" lon="4.70568">
        <ele>291.74845</ele>
        <time>2022-07-23T18:47:43.000Z</time>
      </trkpt>
      <trkpt lat="45.83789" lon="4.70563">
        <ele>291.3813</ele>
        <time>2022-07-23T18:47:44.000Z</time>
      </trkpt>
      <trkpt lat="45.83795" lon="4.70558">
        <ele>291.06973</ele>
        <time>2022-07-23T18:47:45.000Z</time>
      </trkpt>
      <trkpt lat="45.83804" lon="4.70553">
        <ele>290.70518</ele>
        <time>2022-07-23T18:47:46.000Z</time>
      </trkpt>
      <trkpt lat="45.83812" lon="4.70549">
        <ele>290.3894</ele>
        <time>2022-07-23T18:47:47.000Z</time>
      </trkpt>
      <trkpt lat="45.83818" lon="4.70545">
        <ele>290.08862</ele>
        <time>2022-07-23T18:47:48.000Z</time>
      </trkpt>
      <trkpt lat="45.83824" lon="4.7054">
        <ele>289.80543</ele>
        <time>2022-07-23T18:47:49.000Z</time>
      </trkpt>
      <trkpt lat="45.83832" lon="4.70536">
        <ele>289.47439</ele>
        <time>2022-07-23T18:47:50.000Z</time>
      </trkpt>
      <trkpt lat="45.83839" lon="4.7053">
        <ele>289.2003</ele>
        <time>2022-07-23T18:47:51.000Z</time>
      </trkpt>
      <trkpt lat="45.83846" lon="4.70522">
        <ele>288.96889</ele>
        <time>2022-07-23T18:47:52.000Z</time>
      </trkpt>
      <trkpt lat="45.83855" lon="4.70516">
        <ele>288.80234</ele>
        <time>2022-07-23T18:47:53.000Z</time>
      </trkpt>
      <trkpt lat="45.83864" lon="4.7051">
        <ele>288.62695</ele>
        <time>2022-07-23T18:47:54.000Z</time>
      </trkpt>
      <trkpt lat="45.83872" lon="4.70505">
        <ele>288.45358</ele>
        <time>2022-07-23T18:47:55.000Z</time>
      </trkpt>
      <trkpt lat="45.83881" lon="4.705">
        <ele>288.22848</ele>
        <time>2022-07-23T18:47:56.000Z</time>
      </trkpt>
      <trkpt lat="45.8389" lon="4.70496">
        <ele>287.97102</ele>
        <time>2022-07-23T18:47:57.000Z</time>
      </trkpt>
      <trkpt lat="45.83895" lon="4.70494">
        <ele>287.81838</ele>
        <time>2022-07-23T18:47:58.000Z</time>
      </trkpt>
      <trkpt lat="45.83902" lon="4.70491">
        <ele>287.65621</ele>
        <time>2022-07-23T18:47:59.000Z</time>
      </trkpt>
      <trkpt lat="45.83907" lon="4.70488">
        <ele>287.54871</ele>
        <time>2022-07-23T18:48:00.000Z</time>
      </trkpt>
      <trkpt lat="45.83912" lon="4.70485">
        <ele>287.45183</ele>
        <time>2022-07-23T18:48:01.000Z</time>
      </trkpt>
      <trkpt lat="45.83915" lon="4.70481">
        <ele>287.39048</ele>
        <time>2022-07-23T18:48:02.000Z</time>
      </trkpt>
      <trkpt lat="45.83918" lon="4.70479">
        <ele>287.32522</ele>
        <time>2022-07-23T18:48:03.000Z</time>
      </trkpt>
      <trkpt lat="45.8392" lon="4.70479">
        <ele>287.28471</ele>
        <time>2022-07-23T18:48:04.000Z</time>
      </trkpt>
      <trkpt lat="45.83923" lon="4.70481">
        <ele>287.26341</ele>
        <time>2022-07-23T18:48:05.000Z</time>
      </trkpt>
      <trkpt lat="45.83923" lon="4.70481">
        <ele>287.26341</ele>
        <time>2022-07-23T18:48:05.000Z</time>
      </trkpt>
      <trkpt lat="45.83926" lon="4.70483">
        <ele>287.25904</ele>
        <time>2022-07-23T18:48:06.000Z</time>
      </trkpt>
      <trkpt lat="45.83927" lon="4.70487">
        <ele>287.28342</ele>
        <time>2022-07-23T18:48:07.000Z</time>
      </trkpt>
      <trkpt lat="45.83928" lon="4.7049">
        <ele>287.31712</ele>
        <time>2022-07-23T18:48:08.000Z</time>
      </trkpt>
      <trkpt lat="45.83927" lon="4.70495">
        <ele>287.37741</ele>
        <time>2022-07-23T18:48:09.000Z</time>
      </trkpt>
      <trkpt lat="45.83928" lon="4.705">
        <ele>287.4453</ele>
        <time>2022-07-23T18:48:10.000Z</time>
      </trkpt>
      <trkpt lat="45.83928" lon="4.70506">
        <ele>287.51533</ele>
        <time>2022-07-23T18:48:11.000Z</time>
      </trkpt>
      <trkpt lat="45.83928" lon="4.70511">
        <ele>287.58152</ele>
        <time>2022-07-23T18:48:12.000Z</time>
      </trkpt>
      <trkpt lat="45.83928" lon="4.70516">
        <ele>287.65664</ele>
        <time>2022-07-23T18:48:13.000Z</time>
      </trkpt>
      <trkpt lat="45.83929" lon="4.70522">
        <ele>287.74096</ele>
        <time>2022-07-23T18:48:14.000Z</time>
      </trkpt>
      <trkpt lat="45.8393" lon="4.70531">
        <ele>287.89016</ele>
        <time>2022-07-23T18:48:15.000Z</time>
      </trkpt>
      <trkpt lat="45.8393" lon="4.7054">
        <ele>288.05243</ele>
        <time>2022-07-23T18:48:16.000Z</time>
      </trkpt>
      <trkpt lat="45.8393" lon="4.70548">
        <ele>288.22737</ele>
        <time>2022-07-23T18:48:17.000Z</time>
      </trkpt>
      <trkpt lat="45.8393" lon="4.70556">
        <ele>288.40442</ele>
        <time>2022-07-23T18:48:18.000Z</time>
      </trkpt>
      <trkpt lat="45.83931" lon="4.70562">
        <ele>288.55121</ele>
        <time>2022-07-23T18:48:19.000Z</time>
      </trkpt>
      <trkpt lat="45.83932" lon="4.70567">
        <ele>288.68098</ele>
        <time>2022-07-23T18:48:20.000Z</time>
      </trkpt>
      <trkpt lat="45.83931" lon="4.70575">
        <ele>288.89626</ele>
        <time>2022-07-23T18:48:21.000Z</time>
      </trkpt>
      <trkpt lat="45.83931" lon="4.7058">
        <ele>289.09317</ele>
        <time>2022-07-23T18:48:22.000Z</time>
      </trkpt>
      <trkpt lat="45.83931" lon="4.70588">
        <ele>289.24843</ele>
        <time>2022-07-23T18:48:23.000Z</time>
      </trkpt>
      <trkpt lat="45.83931" lon="4.70595">
        <ele>289.40363</ele>
        <time>2022-07-23T18:48:24.000Z</time>
      </trkpt>
      <trkpt lat="45.83932" lon="4.70603">
        <ele>289.53505</ele>
        <time>2022-07-23T18:48:25.000Z</time>
      </trkpt>
      <trkpt lat="45.83932" lon="4.7061">
        <ele>289.60608</ele>
        <time>2022-07-23T18:48:26.000Z</time>
      </trkpt>
      <trkpt lat="45.83932" lon="4.70616">
        <ele>289.72188</ele>
        <time>2022-07-23T18:48:27.000Z</time>
      </trkpt>
      <trkpt lat="45.83932" lon="4.70624">
        <ele>289.82946</ele>
        <time>2022-07-23T18:48:28.000Z</time>
      </trkpt>
      <trkpt lat="45.83932" lon="4.70632">
        <ele>290.03422</ele>
        <time>2022-07-23T18:48:29.000Z</time>
      </trkpt>
      <trkpt lat="45.83932" lon="4.70639">
        <ele>290.19066</ele>
        <time>2022-07-23T18:48:30.000Z</time>
      </trkpt>
      <trkpt lat="45.83932" lon="4.70645">
        <ele>290.39277</ele>
        <time>2022-07-23T18:48:31.000Z</time>
      </trkpt>
      <trkpt lat="45.83932" lon="4.70651">
        <ele>290.55301</ele>
        <time>2022-07-23T18:48:32.000Z</time>
      </trkpt>
      <trkpt lat="45.83932" lon="4.70659">
        <ele>290.73017</ele>
        <time>2022-07-23T18:48:33.000Z</time>
      </trkpt>
      <trkpt lat="45.83932" lon="4.70668">
        <ele>290.97008</ele>
        <time>2022-07-23T18:48:34.000Z</time>
      </trkpt>
      <trkpt lat="45.83932" lon="4.70675">
        <ele>291.14587</ele>
        <time>2022-07-23T18:48:35.000Z</time>
      </trkpt>
      <trkpt lat="45.83932" lon="4.70684">
        <ele>291.33803</ele>
        <time>2022-07-23T18:48:36.000Z</time>
      </trkpt>
      <trkpt lat="45.83932" lon="4.70691">
        <ele>291.5806</ele>
        <time>2022-07-23T18:48:37.000Z</time>
      </trkpt>
      <trkpt lat="45.83931" lon="4.70698">
        <ele>291.80166</ele>
        <time>2022-07-23T18:48:38.000Z</time>
      </trkpt>
      <trkpt lat="45.83931" lon="4.70705">
        <ele>292.02581</ele>
        <time>2022-07-23T18:48:39.000Z</time>
      </trkpt>
      <trkpt lat="45.83931" lon="4.70713">
        <ele>292.21281</ele>
        <time>2022-07-23T18:48:40.000Z</time>
      </trkpt>
      <trkpt lat="45.83931" lon="4.70721">
        <ele>292.42579</ele>
        <time>2022-07-23T18:48:41.000Z</time>
      </trkpt>
      <trkpt lat="45.83929" lon="4.7073">
        <ele>292.59881</ele>
        <time>2022-07-23T18:48:42.000Z</time>
      </trkpt>
      <trkpt lat="45.83928" lon="4.70737">
        <ele>292.70487</ele>
        <time>2022-07-23T18:48:43.000Z</time>
      </trkpt>
      <trkpt lat="45.83927" lon="4.70744">
        <ele>292.83079</ele>
        <time>2022-07-23T18:48:44.000Z</time>
      </trkpt>
      <trkpt lat="45.83926" lon="4.7075">
        <ele>292.97553</ele>
        <time>2022-07-23T18:48:45.000Z</time>
      </trkpt>
      <trkpt lat="45.83924" lon="4.70757">
        <ele>293.18636</ele>
        <time>2022-07-23T18:48:46.000Z</time>
      </trkpt>
      <trkpt lat="45.83922" lon="4.70763">
        <ele>293.40299</ele>
        <time>2022-07-23T18:48:47.000Z</time>
      </trkpt>
      <trkpt lat="45.8392" lon="4.7077">
        <ele>293.67759</ele>
        <time>2022-07-23T18:48:48.000Z</time>
      </trkpt>
      <trkpt lat="45.83917" lon="4.70775">
        <ele>293.92527</ele>
        <time>2022-07-23T18:48:49.000Z</time>
      </trkpt>
      <trkpt lat="45.83914" lon="4.70782">
        <ele>294.2277</ele>
        <time>2022-07-23T18:48:50.000Z</time>
      </trkpt>
      <trkpt lat="45.83912" lon="4.70787">
        <ele>294.4155</ele>
        <time>2022-07-23T18:48:51.000Z</time>
      </trkpt>
      <trkpt lat="45.83909" lon="4.70792">
        <ele>294.61146</ele>
        <time>2022-07-23T18:48:52.000Z</time>
      </trkpt>
      <trkpt lat="45.83906" lon="4.70798">
        <ele>294.78899</ele>
        <time>2022-07-23T18:48:53.000Z</time>
      </trkpt>
      <trkpt lat="45.83903" lon="4.70804">
        <ele>294.92972</ele>
        <time>2022-07-23T18:48:54.000Z</time>
      </trkpt>
      <trkpt lat="45.839" lon="4.70809">
        <ele>295.04998</ele>
        <time>2022-07-23T18:48:55.000Z</time>
      </trkpt>
      <trkpt lat="45.83897" lon="4.70815">
        <ele>295.16316</ele>
        <time>2022-07-23T18:48:56.000Z</time>
      </trkpt>
      <trkpt lat="45.83894" lon="4.7082">
        <ele>295.28826</ele>
        <time>2022-07-23T18:48:57.000Z</time>
      </trkpt>
      <trkpt lat="45.8389" lon="4.70828">
        <ele>295.43553</ele>
        <time>2022-07-23T18:48:58.000Z</time>
      </trkpt>
      <trkpt lat="45.83887" lon="4.70834">
        <ele>295.5317</ele>
        <time>2022-07-23T18:48:59.000Z</time>
      </trkpt>
      <trkpt lat="45.83884" lon="4.70838">
        <ele>295.60678</ele>
        <time>2022-07-23T18:49:00.000Z</time>
      </trkpt>
      <trkpt lat="45.83879" lon="4.70843">
        <ele>295.66667</ele>
        <time>2022-07-23T18:49:01.000Z</time>
      </trkpt>
      <trkpt lat="45.83875" lon="4.70849">
        <ele>295.73661</ele>
        <time>2022-07-23T18:49:02.000Z</time>
      </trkpt>
      <trkpt lat="45.83871" lon="4.70855">
        <ele>295.82864</ele>
        <time>2022-07-23T18:49:03.000Z</time>
      </trkpt>
      <trkpt lat="45.83868" lon="4.70859">
        <ele>295.88035</ele>
        <time>2022-07-23T18:49:04.000Z</time>
      </trkpt>
      <trkpt lat="45.83865" lon="4.70865">
        <ele>295.91603</ele>
        <time>2022-07-23T18:49:05.000Z</time>
      </trkpt>
      <trkpt lat="45.83862" lon="4.7087">
        <ele>295.9182</ele>
        <time>2022-07-23T18:49:06.000Z</time>
      </trkpt>
      <trkpt lat="45.83859" lon="4.70875">
        <ele>295.88044</ele>
        <time>2022-07-23T18:49:07.000Z</time>
      </trkpt>
      <trkpt lat="45.83856" lon="4.7088">
        <ele>295.82898</ele>
        <time>2022-07-23T18:49:08.000Z</time>
      </trkpt>
      <trkpt lat="45.83853" lon="4.70884">
        <ele>295.77959</ele>
        <time>2022-07-23T18:49:09.000Z</time>
      </trkpt>
      <trkpt lat="45.8385" lon="4.70889">
        <ele>295.73812</ele>
        <time>2022-07-23T18:49:10.000Z</time>
      </trkpt>
      <trkpt lat="45.83847" lon="4.70893">
        <ele>295.69094</ele>
        <time>2022-07-23T18:49:11.000Z</time>
      </trkpt>
      <trkpt lat="45.83846" lon="4.70897">
        <ele>295.63001</ele>
        <time>2022-07-23T18:49:12.000Z</time>
      </trkpt>
      <trkpt lat="45.83843" lon="4.70902">
        <ele>295.55006</ele>
        <time>2022-07-23T18:49:13.000Z</time>
      </trkpt>
      <trkpt lat="45.83839" lon="4.70908">
        <ele>295.39771</ele>
        <time>2022-07-23T18:49:14.000Z</time>
      </trkpt>
      <trkpt lat="45.83835" lon="4.70913">
        <ele>295.26149</ele>
        <time>2022-07-23T18:49:15.000Z</time>
      </trkpt>
      <trkpt lat="45.83833" lon="4.70921">
        <ele>295.08694</ele>
        <time>2022-07-23T18:49:16.000Z</time>
      </trkpt>
      <trkpt lat="45.8383" lon="4.70928">
        <ele>294.93667</ele>
        <time>2022-07-23T18:49:17.000Z</time>
      </trkpt>
      <trkpt lat="45.83825" lon="4.70936">
        <ele>294.80521</ele>
        <time>2022-07-23T18:49:18.000Z</time>
      </trkpt>
      <trkpt lat="45.8382" lon="4.70941">
        <ele>294.72019</ele>
        <time>2022-07-23T18:49:19.000Z</time>
      </trkpt>
      <trkpt lat="45.83816" lon="4.70947">
        <ele>294.62635</ele>
        <time>2022-07-23T18:49:20.000Z</time>
      </trkpt>
      <trkpt lat="45.83812" lon="4.70953">
        <ele>294.51536</ele>
        <time>2022-07-23T18:49:21.000Z</time>
      </trkpt>
      <trkpt lat="45.83808" lon="4.70961">
        <ele>294.35223</ele>
        <time>2022-07-23T18:49:22.000Z</time>
      </trkpt>
      <trkpt lat="45.83805" lon="4.70966">
        <ele>294.23812</ele>
        <time>2022-07-23T18:49:23.000Z</time>
      </trkpt>
      <trkpt lat="45.83802" lon="4.70971">
        <ele>294.1701</ele>
        <time>2022-07-23T18:49:24.000Z</time>
      </trkpt>
      <trkpt lat="45.83799" lon="4.70977">
        <ele>294.06781</ele>
        <time>2022-07-23T18:49:25.000Z</time>
      </trkpt>
      <trkpt lat="45.83796" lon="4.70981">
        <ele>294.07569</ele>
        <time>2022-07-23T18:49:26.000Z</time>
      </trkpt>
      <trkpt lat="45.83793" lon="4.70984">
        <ele>294.09268</ele>
        <time>2022-07-23T18:49:27.000Z</time>
      </trkpt>
      <trkpt lat="45.8379" lon="4.70985">
        <ele>294.18691</ele>
        <time>2022-07-23T18:49:28.000Z</time>
      </trkpt>
      <trkpt lat="45.83787" lon="4.70988">
        <ele>294.23639</ele>
        <time>2022-07-23T18:49:29.000Z</time>
      </trkpt>
      <trkpt lat="45.83785" lon="4.70991">
        <ele>294.20002</ele>
        <time>2022-07-23T18:49:30.000Z</time>
      </trkpt>
      <trkpt lat="45.83785" lon="4.70995">
        <ele>294.13242</ele>
        <time>2022-07-23T18:49:31.000Z</time>
      </trkpt>
      <trkpt lat="45.83783" lon="4.71">
        <ele>294.06384</ele>
        <time>2022-07-23T18:49:32.000Z</time>
      </trkpt>
      <trkpt lat="45.8378" lon="4.71006">
        <ele>293.94181</ele>
        <time>2022-07-23T18:49:33.000Z</time>
      </trkpt>
      <trkpt lat="45.83777" lon="4.71014">
        <ele>293.80761</ele>
        <time>2022-07-23T18:49:34.000Z</time>
      </trkpt>
      <trkpt lat="45.83772" lon="4.71023">
        <ele>293.78535</ele>
        <time>2022-07-23T18:49:35.000Z</time>
      </trkpt>
      <trkpt lat="45.8377" lon="4.71028">
        <ele>293.89349</ele>
        <time>2022-07-23T18:49:36.000Z</time>
      </trkpt>
      <trkpt lat="45.83767" lon="4.71032">
        <ele>294.08736</ele>
        <time>2022-07-23T18:49:37.000Z</time>
      </trkpt>
      <trkpt lat="45.83763" lon="4.71036">
        <ele>294.39368</ele>
        <time>2022-07-23T18:49:38.000Z</time>
      </trkpt>
      <trkpt lat="45.83759" lon="4.71041">
        <ele>294.36347</ele>
        <time>2022-07-23T18:49:39.000Z</time>
      </trkpt>
      <trkpt lat="45.83754" lon="4.71047">
        <ele>294.10112</ele>
        <time>2022-07-23T18:49:40.000Z</time>
      </trkpt>
      <trkpt lat="45.83752" lon="4.71054">
        <ele>293.45089</ele>
        <time>2022-07-23T18:49:41.000Z</time>
      </trkpt>
      <trkpt lat="45.8375" lon="4.71058">
        <ele>292.96755</ele>
        <time>2022-07-23T18:49:42.000Z</time>
      </trkpt>
      <trkpt lat="45.83747" lon="4.71064">
        <ele>292.50185</ele>
        <time>2022-07-23T18:49:43.000Z</time>
      </trkpt>
      <trkpt lat="45.83745" lon="4.7107">
        <ele>292.16233</ele>
        <time>2022-07-23T18:49:44.000Z</time>
      </trkpt>
      <trkpt lat="45.83742" lon="4.71076">
        <ele>291.95389</ele>
        <time>2022-07-23T18:49:45.000Z</time>
      </trkpt>
      <trkpt lat="45.8374" lon="4.71079">
        <ele>291.88902</ele>
        <time>2022-07-23T18:49:46.000Z</time>
      </trkpt>
      <trkpt lat="45.83738" lon="4.71081">
        <ele>291.85736</ele>
        <time>2022-07-23T18:49:47.000Z</time>
      </trkpt>
      <trkpt lat="45.83736" lon="4.71085">
        <ele>291.80421</ele>
        <time>2022-07-23T18:49:48.000Z</time>
      </trkpt>
      <trkpt lat="45.83734" lon="4.71089">
        <ele>291.76467</ele>
        <time>2022-07-23T18:49:49.000Z</time>
      </trkpt>
      <trkpt lat="45.83733" lon="4.71093">
        <ele>291.71308</ele>
        <time>2022-07-23T18:49:50.000Z</time>
      </trkpt>
      <trkpt lat="45.83729" lon="4.71097">
        <ele>291.70093</ele>
        <time>2022-07-23T18:49:51.000Z</time>
      </trkpt>
      <trkpt lat="45.83728" lon="4.71102">
        <ele>291.63768</ele>
        <time>2022-07-23T18:49:52.000Z</time>
      </trkpt>
      <trkpt lat="45.83725" lon="4.71107">
        <ele>291.59466</ele>
        <time>2022-07-23T18:49:53.000Z</time>
      </trkpt>
      <trkpt lat="45.83722" lon="4.71111">
        <ele>291.57972</ele>
        <time>2022-07-23T18:49:54.000Z</time>
      </trkpt>
      <trkpt lat="45.83719" lon="4.71116">
        <ele>291.52277</ele>
        <time>2022-07-23T18:49:55.000Z</time>
      </trkpt>
      <trkpt lat="45.83717" lon="4.71123">
        <ele>291.42585</ele>
        <time>2022-07-23T18:49:56.000Z</time>
      </trkpt>
      <trkpt lat="45.83714" lon="4.71129">
        <ele>291.31554</ele>
        <time>2022-07-23T18:49:57.000Z</time>
      </trkpt>
      <trkpt lat="45.83713" lon="4.7113">
        <ele>291.2982</ele>
        <time>2022-07-23T18:49:58.000Z</time>
      </trkpt>
      <trkpt lat="45.83711" lon="4.71133">
        <ele>291.23343</ele>
        <time>2022-07-23T18:49:59.000Z</time>
      </trkpt>
      <trkpt lat="45.83708" lon="4.71137">
        <ele>291.18534</ele>
        <time>2022-07-23T18:50:00.000Z</time>
      </trkpt>
      <trkpt lat="45.83706" lon="4.71141">
        <ele>291.12485</ele>
        <time>2022-07-23T18:50:01.000Z</time>
      </trkpt>
      <trkpt lat="45.83704" lon="4.71147">
        <ele>291.02753</ele>
        <time>2022-07-23T18:50:02.000Z</time>
      </trkpt>
      <trkpt lat="45.83701" lon="4.71151">
        <ele>290.98895</ele>
        <time>2022-07-23T18:50:03.000Z</time>
      </trkpt>
      <trkpt lat="45.83698" lon="4.71155">
        <ele>290.96432</ele>
        <time>2022-07-23T18:50:04.000Z</time>
      </trkpt>
      <trkpt lat="45.83697" lon="4.71159">
        <ele>290.91751</ele>
        <time>2022-07-23T18:50:05.000Z</time>
      </trkpt>
      <trkpt lat="45.83695" lon="4.71162">
        <ele>290.91065</ele>
        <time>2022-07-23T18:50:06.000Z</time>
      </trkpt>
      <trkpt lat="45.83693" lon="4.71166">
        <ele>290.87454</ele>
        <time>2022-07-23T18:50:07.000Z</time>
      </trkpt>
      <trkpt lat="45.83691" lon="4.71171">
        <ele>290.80633</ele>
        <time>2022-07-23T18:50:08.000Z</time>
      </trkpt>
      <trkpt lat="45.83689" lon="4.71177">
        <ele>290.74298</ele>
        <time>2022-07-23T18:50:09.000Z</time>
      </trkpt>
      <trkpt lat="45.83687" lon="4.71182">
        <ele>290.66217</ele>
        <time>2022-07-23T18:50:10.000Z</time>
      </trkpt>
      <trkpt lat="45.83685" lon="4.71188">
        <ele>290.58138</ele>
        <time>2022-07-23T18:50:11.000Z</time>
      </trkpt>
      <trkpt lat="45.83684" lon="4.71194">
        <ele>290.50064</ele>
        <time>2022-07-23T18:50:12.000Z</time>
      </trkpt>
      <trkpt lat="45.83682" lon="4.71199">
        <ele>290.4339</ele>
        <time>2022-07-23T18:50:13.000Z</time>
      </trkpt>
      <trkpt lat="45.8368" lon="4.71204">
        <ele>290.38499</ele>
        <time>2022-07-23T18:50:14.000Z</time>
      </trkpt>
      <trkpt lat="45.83679" lon="4.71208">
        <ele>290.33456</ele>
        <time>2022-07-23T18:50:15.000Z</time>
      </trkpt>
      <trkpt lat="45.83678" lon="4.71213">
        <ele>290.25528</ele>
        <time>2022-07-23T18:50:16.000Z</time>
      </trkpt>
      <trkpt lat="45.83678" lon="4.71218">
        <ele>290.1406</ele>
        <time>2022-07-23T18:50:17.000Z</time>
      </trkpt>
      <trkpt lat="45.83678" lon="4.71224">
        <ele>289.99318</ele>
        <time>2022-07-23T18:50:18.000Z</time>
      </trkpt>
      <trkpt lat="45.83678" lon="4.7123">
        <ele>289.83725</ele>
        <time>2022-07-23T18:50:19.000Z</time>
      </trkpt>
      <trkpt lat="45.83678" lon="4.71237">
        <ele>289.68042</ele>
        <time>2022-07-23T18:50:20.000Z</time>
      </trkpt>
      <trkpt lat="45.83677" lon="4.71243">
        <ele>289.57002</ele>
        <time>2022-07-23T18:50:21.000Z</time>
      </trkpt>
      <trkpt lat="45.83675" lon="4.7125">
        <ele>289.51758</ele>
        <time>2022-07-23T18:50:22.000Z</time>
      </trkpt>
      <trkpt lat="45.83673" lon="4.71256">
        <ele>289.52265</ele>
        <time>2022-07-23T18:50:23.000Z</time>
      </trkpt>
      <trkpt lat="45.83671" lon="4.71262">
        <ele>289.5522</ele>
        <time>2022-07-23T18:50:24.000Z</time>
      </trkpt>
      <trkpt lat="45.83669" lon="4.71268">
        <ele>289.59635</ele>
        <time>2022-07-23T18:50:25.000Z</time>
      </trkpt>
      <trkpt lat="45.83667" lon="4.71274">
        <ele>289.63058</ele>
        <time>2022-07-23T18:50:26.000Z</time>
      </trkpt>
      <trkpt lat="45.83667" lon="4.71286">
        <ele>289.557</ele>
        <time>2022-07-23T18:50:27.000Z</time>
      </trkpt>
      <trkpt lat="45.83667" lon="4.71293">
        <ele>289.43924</ele>
        <time>2022-07-23T18:50:28.000Z</time>
      </trkpt>
      <trkpt lat="45.83664" lon="4.71295">
        <ele>289.65764</ele>
        <time>2022-07-23T18:50:29.000Z</time>
      </trkpt>
      <trkpt lat="45.83662" lon="4.71303">
        <ele>289.71556</ele>
        <time>2022-07-23T18:50:30.000Z</time>
      </trkpt>
      <trkpt lat="45.8366" lon="4.71309">
        <ele>289.7475</ele>
        <time>2022-07-23T18:50:31.000Z</time>
      </trkpt>
      <trkpt lat="45.83659" lon="4.7132">
        <ele>289.68535</ele>
        <time>2022-07-23T18:50:32.000Z</time>
      </trkpt>
      <trkpt lat="45.83658" lon="4.71328">
        <ele>289.63543</ele>
        <time>2022-07-23T18:50:33.000Z</time>
      </trkpt>
      <trkpt lat="45.83657" lon="4.71337">
        <ele>289.51859</ele>
        <time>2022-07-23T18:50:34.000Z</time>
      </trkpt>
      <trkpt lat="45.83654" lon="4.71346">
        <ele>289.41372</ele>
        <time>2022-07-23T18:50:35.000Z</time>
      </trkpt>
      <trkpt lat="45.83652" lon="4.71353">
        <ele>289.33373</ele>
        <time>2022-07-23T18:50:36.000Z</time>
      </trkpt>
      <trkpt lat="45.8365" lon="4.71362">
        <ele>289.27682</ele>
        <time>2022-07-23T18:50:37.000Z</time>
      </trkpt>
      <trkpt lat="45.83649" lon="4.71371">
        <ele>289.23149</ele>
        <time>2022-07-23T18:50:38.000Z</time>
      </trkpt>
      <trkpt lat="45.83647" lon="4.71378">
        <ele>289.28525</ele>
        <time>2022-07-23T18:50:39.000Z</time>
      </trkpt>
      <trkpt lat="45.83645" lon="4.71387">
        <ele>289.35892</ele>
        <time>2022-07-23T18:50:40.000Z</time>
      </trkpt>
      <trkpt lat="45.83643" lon="4.71397">
        <ele>289.36309</ele>
        <time>2022-07-23T18:50:41.000Z</time>
      </trkpt>
      <trkpt lat="45.83641" lon="4.71406">
        <ele>289.35334</ele>
        <time>2022-07-23T18:50:42.000Z</time>
      </trkpt>
      <trkpt lat="45.8364" lon="4.71415">
        <ele>289.32588</ele>
        <time>2022-07-23T18:50:43.000Z</time>
      </trkpt>
      <trkpt lat="45.83637" lon="4.71423">
        <ele>289.3397</ele>
        <time>2022-07-23T18:50:44.000Z</time>
      </trkpt>
      <trkpt lat="45.83635" lon="4.71431">
        <ele>289.32793</ele>
        <time>2022-07-23T18:50:45.000Z</time>
      </trkpt>
      <trkpt lat="45.83632" lon="4.71437">
        <ele>289.34814</ele>
        <time>2022-07-23T18:50:46.000Z</time>
      </trkpt>
      <trkpt lat="45.8363" lon="4.71445">
        <ele>289.37674</ele>
        <time>2022-07-23T18:50:47.000Z</time>
      </trkpt>
      <trkpt lat="45.83627" lon="4.71452">
        <ele>289.43985</ele>
        <time>2022-07-23T18:50:48.000Z</time>
      </trkpt>
      <trkpt lat="45.83625" lon="4.7146">
        <ele>289.47861</ele>
        <time>2022-07-23T18:50:49.000Z</time>
      </trkpt>
      <trkpt lat="45.83623" lon="4.71466">
        <ele>289.53014</ele>
        <time>2022-07-23T18:50:50.000Z</time>
      </trkpt>
      <trkpt lat="45.83619" lon="4.71473">
        <ele>289.59186</ele>
        <time>2022-07-23T18:50:51.000Z</time>
      </trkpt>
      <trkpt lat="45.83615" lon="4.71479">
        <ele>289.61657</ele>
        <time>2022-07-23T18:50:52.000Z</time>
      </trkpt>
      <trkpt lat="45.83611" lon="4.71485">
        <ele>289.58002</ele>
        <time>2022-07-23T18:50:53.000Z</time>
      </trkpt>
      <trkpt lat="45.83605" lon="4.7149">
        <ele>289.55674</ele>
        <time>2022-07-23T18:50:54.000Z</time>
      </trkpt>
      <trkpt lat="45.836" lon="4.71494">
        <ele>289.52067</ele>
        <time>2022-07-23T18:50:55.000Z</time>
      </trkpt>
      <trkpt lat="45.83595" lon="4.71497">
        <ele>289.43193</ele>
        <time>2022-07-23T18:50:56.000Z</time>
      </trkpt>
      <trkpt lat="45.8359" lon="4.715">
        <ele>289.343</ele>
        <time>2022-07-23T18:50:57.000Z</time>
      </trkpt>
      <trkpt lat="45.83585" lon="4.71501">
        <ele>289.27344</ele>
        <time>2022-07-23T18:50:58.000Z</time>
      </trkpt>
      <trkpt lat="45.8358" lon="4.71503">
        <ele>289.14126</ele>
        <time>2022-07-23T18:50:59.000Z</time>
      </trkpt>
      <trkpt lat="45.83576" lon="4.71508">
        <ele>288.75189</ele>
        <time>2022-07-23T18:51:00.000Z</time>
      </trkpt>
      <trkpt lat="45.83571" lon="4.71514">
        <ele>288.18553</ele>
        <time>2022-07-23T18:51:01.000Z</time>
      </trkpt>
      <trkpt lat="45.83565" lon="4.71519">
        <ele>287.83618</ele>
        <time>2022-07-23T18:51:02.000Z</time>
      </trkpt>
      <trkpt lat="45.83559" lon="4.71525">
        <ele>287.63396</ele>
        <time>2022-07-23T18:51:03.000Z</time>
      </trkpt>
      <trkpt lat="45.83555" lon="4.7153">
        <ele>287.4339</ele>
        <time>2022-07-23T18:51:04.000Z</time>
      </trkpt>
      <trkpt lat="45.8355" lon="4.71535">
        <ele>287.36541</ele>
        <time>2022-07-23T18:51:05.000Z</time>
      </trkpt>
      <trkpt lat="45.83544" lon="4.7154">
        <ele>287.21964</ele>
        <time>2022-07-23T18:51:06.000Z</time>
      </trkpt>
      <trkpt lat="45.83538" lon="4.71544">
        <ele>287.03001</ele>
        <time>2022-07-23T18:51:07.000Z</time>
      </trkpt>
      <trkpt lat="45.83533" lon="4.71549">
        <ele>286.55912</ele>
        <time>2022-07-23T18:51:08.000Z</time>
      </trkpt>
      <trkpt lat="45.83528" lon="4.71555">
        <ele>285.7585</ele>
        <time>2022-07-23T18:51:09.000Z</time>
      </trkpt>
      <trkpt lat="45.83523" lon="4.71561">
        <ele>284.68088</ele>
        <time>2022-07-23T18:51:10.000Z</time>
      </trkpt>
      <trkpt lat="45.83516" lon="4.71566">
        <ele>284.46318</ele>
        <time>2022-07-23T18:51:11.000Z</time>
      </trkpt>
      <trkpt lat="45.8351" lon="4.7157">
        <ele>284.56067</ele>
        <time>2022-07-23T18:51:12.000Z</time>
      </trkpt>
      <trkpt lat="45.83503" lon="4.71574">
        <ele>284.72449</ele>
        <time>2022-07-23T18:51:13.000Z</time>
      </trkpt>
      <trkpt lat="45.83496" lon="4.7158">
        <ele>284.90257</ele>
        <time>2022-07-23T18:51:14.000Z</time>
      </trkpt>
      <trkpt lat="45.83488" lon="4.71585">
        <ele>285.47624</ele>
        <time>2022-07-23T18:51:15.000Z</time>
      </trkpt>
      <trkpt lat="45.83483" lon="4.71588">
        <ele>285.8167</ele>
        <time>2022-07-23T18:51:16.000Z</time>
      </trkpt>
      <trkpt lat="45.83478" lon="4.71592">
        <ele>285.91487</ele>
        <time>2022-07-23T18:51:17.000Z</time>
      </trkpt>
      <trkpt lat="45.83472" lon="4.71593">
        <ele>286.14317</ele>
        <time>2022-07-23T18:51:18.000Z</time>
      </trkpt>
      <trkpt lat="45.83467" lon="4.71593">
        <ele>286.38282</ele>
        <time>2022-07-23T18:51:19.000Z</time>
      </trkpt>
      <trkpt lat="45.83462" lon="4.71592">
        <ele>286.59335</ele>
        <time>2022-07-23T18:51:20.000Z</time>
      </trkpt>
      <trkpt lat="45.83457" lon="4.71591">
        <ele>286.57288</ele>
        <time>2022-07-23T18:51:21.000Z</time>
      </trkpt>
      <trkpt lat="45.83451" lon="4.71589">
        <ele>286.55021</ele>
        <time>2022-07-23T18:51:22.000Z</time>
      </trkpt>
      <trkpt lat="45.83448" lon="4.71586">
        <ele>286.64436</ele>
        <time>2022-07-23T18:51:23.000Z</time>
      </trkpt>
      <trkpt lat="45.83446" lon="4.71584">
        <ele>286.77531</ele>
        <time>2022-07-23T18:51:24.000Z</time>
      </trkpt>
      <trkpt lat="45.8344" lon="4.71579">
        <ele>286.69944</ele>
        <time>2022-07-23T18:51:25.000Z</time>
      </trkpt>
      <trkpt lat="45.83434" lon="4.71574">
        <ele>286.48498</ele>
        <time>2022-07-23T18:51:26.000Z</time>
      </trkpt>
      <trkpt lat="45.83425" lon="4.71569">
        <ele>285.33489</ele>
        <time>2022-07-23T18:51:27.000Z</time>
      </trkpt>
      <trkpt lat="45.83417" lon="4.71562">
        <ele>284.6943</ele>
        <time>2022-07-23T18:51:28.000Z</time>
      </trkpt>
      <trkpt lat="45.83413" lon="4.71554">
        <ele>285.29695</ele>
        <time>2022-07-23T18:51:29.000Z</time>
      </trkpt>
      <trkpt lat="45.83408" lon="4.71551">
        <ele>285.05913</ele>
        <time>2022-07-23T18:51:30.000Z</time>
      </trkpt>
      <trkpt lat="45.834" lon="4.7155">
        <ele>284.13432</ele>
        <time>2022-07-23T18:51:31.000Z</time>
      </trkpt>
      <trkpt lat="45.83393" lon="4.7155">
        <ele>283.40072</ele>
        <time>2022-07-23T18:51:32.000Z</time>
      </trkpt>
      <trkpt lat="45.83389" lon="4.71553">
        <ele>282.33458</ele>
        <time>2022-07-23T18:51:33.000Z</time>
      </trkpt>
      <trkpt lat="45.8338" lon="4.71559">
        <ele>281.74911</ele>
        <time>2022-07-23T18:51:34.000Z</time>
      </trkpt>
      <trkpt lat="45.83371" lon="4.71564">
        <ele>282.73157</ele>
        <time>2022-07-23T18:51:35.000Z</time>
      </trkpt>
      <trkpt lat="45.83367" lon="4.71573">
        <ele>283.12499</ele>
        <time>2022-07-23T18:51:36.000Z</time>
      </trkpt>
      <trkpt lat="45.83363" lon="4.71581">
        <ele>283.22309</ele>
        <time>2022-07-23T18:51:37.000Z</time>
      </trkpt>
      <trkpt lat="45.83359" lon="4.71589">
        <ele>283.10831</ele>
        <time>2022-07-23T18:51:38.000Z</time>
      </trkpt>
      <trkpt lat="45.83357" lon="4.71597">
        <ele>282.82587</ele>
        <time>2022-07-23T18:51:39.000Z</time>
      </trkpt>
      <trkpt lat="45.83354" lon="4.71604">
        <ele>282.57419</ele>
        <time>2022-07-23T18:51:40.000Z</time>
      </trkpt>
      <trkpt lat="45.83353" lon="4.71608">
        <ele>282.44978</ele>
        <time>2022-07-23T18:51:41.000Z</time>
      </trkpt>
      <trkpt lat="45.83352" lon="4.71614">
        <ele>282.2162</ele>
        <time>2022-07-23T18:51:42.000Z</time>
      </trkpt>
      <trkpt lat="45.83352" lon="4.71618">
        <ele>282.03115</ele>
        <time>2022-07-23T18:51:43.000Z</time>
      </trkpt>
      <trkpt lat="45.83355" lon="4.71623">
        <ele>281.7437</ele>
        <time>2022-07-23T18:51:44.000Z</time>
      </trkpt>
      <trkpt lat="45.83358" lon="4.71625">
        <ele>281.55529</ele>
        <time>2022-07-23T18:51:45.000Z</time>
      </trkpt>
      <trkpt lat="45.83362" lon="4.71625">
        <ele>281.30276</ele>
        <time>2022-07-23T18:51:46.000Z</time>
      </trkpt>
      <trkpt lat="45.83366" lon="4.71622">
        <ele>281.1084</ele>
        <time>2022-07-23T18:51:47.000Z</time>
      </trkpt>
      <trkpt lat="45.83369" lon="4.71618">
        <ele>280.76207</ele>
        <time>2022-07-23T18:51:48.000Z</time>
      </trkpt>
      <trkpt lat="45.83371" lon="4.71612">
        <ele>280.58061</ele>
        <time>2022-07-23T18:51:49.000Z</time>
      </trkpt>
      <trkpt lat="45.83374" lon="4.71605">
        <ele>280.25864</ele>
        <time>2022-07-23T18:51:50.000Z</time>
      </trkpt>
      <trkpt lat="45.83375" lon="4.71599">
        <ele>280.19983</ele>
        <time>2022-07-23T18:51:51.000Z</time>
      </trkpt>
      <trkpt lat="45.83377" lon="4.71596">
        <ele>279.76038</ele>
        <time>2022-07-23T18:51:52.000Z</time>
      </trkpt>
      <trkpt lat="45.83381" lon="4.71593">
        <ele>278.62984</ele>
        <time>2022-07-23T18:51:53.000Z</time>
      </trkpt>
      <trkpt lat="45.83385" lon="4.71593">
        <ele>277.70225</ele>
        <time>2022-07-23T18:51:54.000Z</time>
      </trkpt>
      <trkpt lat="45.83389" lon="4.71593">
        <ele>276.88671</ele>
        <time>2022-07-23T18:51:55.000Z</time>
      </trkpt>
      <trkpt lat="45.83394" lon="4.71603">
        <ele>276.01687</ele>
        <time>2022-07-23T18:51:56.000Z</time>
      </trkpt>
      <trkpt lat="45.83397" lon="4.71612">
        <ele>275.17742</ele>
        <time>2022-07-23T18:51:57.000Z</time>
      </trkpt>
      <trkpt lat="45.83401" lon="4.71625">
        <ele>274.1421</ele>
        <time>2022-07-23T18:51:58.000Z</time>
      </trkpt>
      <trkpt lat="45.83405" lon="4.71637">
        <ele>272.89709</ele>
        <time>2022-07-23T18:51:59.000Z</time>
      </trkpt>
      <trkpt lat="45.83407" lon="4.71648">
        <ele>271.55209</ele>
        <time>2022-07-23T18:52:00.000Z</time>
      </trkpt>
      <trkpt lat="45.8341" lon="4.7166">
        <ele>270.27668</ele>
        <time>2022-07-23T18:52:01.000Z</time>
      </trkpt>
      <trkpt lat="45.83412" lon="4.71673">
        <ele>269.26288</ele>
        <time>2022-07-23T18:52:02.000Z</time>
      </trkpt>
      <trkpt lat="45.83416" lon="4.71688">
        <ele>268.01307</ele>
        <time>2022-07-23T18:52:03.000Z</time>
      </trkpt>
      <trkpt lat="45.8342" lon="4.71704">
        <ele>266.14659</ele>
        <time>2022-07-23T18:52:04.000Z</time>
      </trkpt>
      <trkpt lat="45.83422" lon="4.71718">
        <ele>265.06303</ele>
        <time>2022-07-23T18:52:05.000Z</time>
      </trkpt>
      <trkpt lat="45.83426" lon="4.71735">
        <ele>264.8083</ele>
        <time>2022-07-23T18:52:06.000Z</time>
      </trkpt>
      <trkpt lat="45.83429" lon="4.71751">
        <ele>265.6469</ele>
        <time>2022-07-23T18:52:07.000Z</time>
      </trkpt>
      <trkpt lat="45.83433" lon="4.71765">
        <ele>266.91697</ele>
        <time>2022-07-23T18:52:08.000Z</time>
      </trkpt>
      <trkpt lat="45.83437" lon="4.71778">
        <ele>267.8441</ele>
        <time>2022-07-23T18:52:09.000Z</time>
      </trkpt>
      <trkpt lat="45.83441" lon="4.71789">
        <ele>268.62592</ele>
        <time>2022-07-23T18:52:10.000Z</time>
      </trkpt>
      <trkpt lat="45.83445" lon="4.718">
        <ele>269.34328</ele>
        <time>2022-07-23T18:52:11.000Z</time>
      </trkpt>
      <trkpt lat="45.83448" lon="4.71808">
        <ele>269.6386</ele>
        <time>2022-07-23T18:52:12.000Z</time>
      </trkpt>
      <trkpt lat="45.8345" lon="4.71817">
        <ele>269.53019</ele>
        <time>2022-07-23T18:52:13.000Z</time>
      </trkpt>
      <trkpt lat="45.83452" lon="4.71824">
        <ele>269.49613</ele>
        <time>2022-07-23T18:52:14.000Z</time>
      </trkpt>
      <trkpt lat="45.83455" lon="4.71831">
        <ele>269.71525</ele>
        <time>2022-07-23T18:52:15.000Z</time>
      </trkpt>
      <trkpt lat="45.83457" lon="4.71839">
        <ele>270.42729</ele>
        <time>2022-07-23T18:52:16.000Z</time>
      </trkpt>
      <trkpt lat="45.83474" lon="4.71887">
        <ele>273.68161</ele>
        <time>2022-07-23T18:52:22.000Z</time>
      </trkpt>
      <trkpt lat="45.83473" lon="4.71896">
        <ele>273.76532</ele>
        <time>2022-07-23T18:52:23.000Z</time>
      </trkpt>
      <trkpt lat="45.83471" lon="4.71903">
        <ele>274.03987</ele>
        <time>2022-07-23T18:52:24.000Z</time>
      </trkpt>
      <trkpt lat="45.8347" lon="4.7191">
        <ele>274.58826</ele>
        <time>2022-07-23T18:52:25.000Z</time>
      </trkpt>
      <trkpt lat="45.83467" lon="4.71919">
        <ele>275.36665</ele>
        <time>2022-07-23T18:52:26.000Z</time>
      </trkpt>
      <trkpt lat="45.83465" lon="4.71926">
        <ele>275.97781</ele>
        <time>2022-07-23T18:52:27.000Z</time>
      </trkpt>
      <trkpt lat="45.83464" lon="4.71935">
        <ele>276.47288</ele>
        <time>2022-07-23T18:52:28.000Z</time>
      </trkpt>
      <trkpt lat="45.83462" lon="4.71942">
        <ele>276.71653</ele>
        <time>2022-07-23T18:52:29.000Z</time>
      </trkpt>
      <trkpt lat="45.8346" lon="4.71949">
        <ele>276.77574</ele>
        <time>2022-07-23T18:52:30.000Z</time>
      </trkpt>
      <trkpt lat="45.83458" lon="4.71955">
        <ele>276.73752</ele>
        <time>2022-07-23T18:52:31.000Z</time>
      </trkpt>
      <trkpt lat="45.83456" lon="4.71964">
        <ele>276.73959</ele>
        <time>2022-07-23T18:52:32.000Z</time>
      </trkpt>
      <trkpt lat="45.83454" lon="4.71972">
        <ele>276.79191</ele>
        <time>2022-07-23T18:52:33.000Z</time>
      </trkpt>
      <trkpt lat="45.83453" lon="4.7198">
        <ele>276.94742</ele>
        <time>2022-07-23T18:52:34.000Z</time>
      </trkpt>
      <trkpt lat="45.83452" lon="4.71988">
        <ele>277.09654</ele>
        <time>2022-07-23T18:52:35.000Z</time>
      </trkpt>
      <trkpt lat="45.83449" lon="4.71994">
        <ele>277.1813</ele>
        <time>2022-07-23T18:52:36.000Z</time>
      </trkpt>
      <trkpt lat="45.83447" lon="4.72002">
        <ele>277.39237</ele>
        <time>2022-07-23T18:52:37.000Z</time>
      </trkpt>
      <trkpt lat="45.83445" lon="4.72009">
        <ele>277.57921</ele>
        <time>2022-07-23T18:52:38.000Z</time>
      </trkpt>
      <trkpt lat="45.83443" lon="4.72015">
        <ele>277.72268</ele>
        <time>2022-07-23T18:52:39.000Z</time>
      </trkpt>
      <trkpt lat="45.83442" lon="4.72023">
        <ele>277.87386</ele>
        <time>2022-07-23T18:52:40.000Z</time>
      </trkpt>
      <trkpt lat="45.83441" lon="4.72029">
        <ele>277.94506</ele>
        <time>2022-07-23T18:52:41.000Z</time>
      </trkpt>
      <trkpt lat="45.83441" lon="4.72033">
        <ele>278.00593</ele>
        <time>2022-07-23T18:52:42.000Z</time>
      </trkpt>
      <trkpt lat="45.8344" lon="4.72042">
        <ele>278.09736</ele>
        <time>2022-07-23T18:52:43.000Z</time>
      </trkpt>
      <trkpt lat="45.83441" lon="4.72047">
        <ele>278.1373</ele>
        <time>2022-07-23T18:52:44.000Z</time>
      </trkpt>
      <trkpt lat="45.83438" lon="4.7205">
        <ele>278.21967</ele>
        <time>2022-07-23T18:52:45.000Z</time>
      </trkpt>
      <trkpt lat="45.83434" lon="4.72048">
        <ele>278.25877</ele>
        <time>2022-07-23T18:52:46.000Z</time>
      </trkpt>
      <trkpt lat="45.83431" lon="4.72048">
        <ele>278.27883</ele>
        <time>2022-07-23T18:52:47.000Z</time>
      </trkpt>
      <trkpt lat="45.83426" lon="4.72049">
        <ele>278.32312</ele>
        <time>2022-07-23T18:52:48.000Z</time>
      </trkpt>
      <trkpt lat="45.83422" lon="4.72045">
        <ele>278.12336</ele>
        <time>2022-07-23T18:52:49.000Z</time>
      </trkpt>
      <trkpt lat="45.83418" lon="4.72041">
        <ele>277.85818</ele>
        <time>2022-07-23T18:52:50.000Z</time>
      </trkpt>
      <trkpt lat="45.83415" lon="4.72038">
        <ele>277.59959</ele>
        <time>2022-07-23T18:52:51.000Z</time>
      </trkpt>
      <trkpt lat="45.83411" lon="4.72035">
        <ele>277.36185</ele>
        <time>2022-07-23T18:52:52.000Z</time>
      </trkpt>
      <trkpt lat="45.83408" lon="4.72032">
        <ele>277.14303</ele>
        <time>2022-07-23T18:52:53.000Z</time>
      </trkpt>
      <trkpt lat="45.83405" lon="4.72029">
        <ele>276.92765</ele>
        <time>2022-07-23T18:52:54.000Z</time>
      </trkpt>
      <trkpt lat="45.83401" lon="4.72027">
        <ele>276.72227</ele>
        <time>2022-07-23T18:52:55.000Z</time>
      </trkpt>
      <trkpt lat="45.83398" lon="4.72024">
        <ele>276.51789</ele>
        <time>2022-07-23T18:52:56.000Z</time>
      </trkpt>
      <trkpt lat="45.83396" lon="4.72022">
        <ele>276.36231</ele>
        <time>2022-07-23T18:52:57.000Z</time>
      </trkpt>
      <trkpt lat="45.83393" lon="4.7202">
        <ele>276.20613</ele>
        <time>2022-07-23T18:52:58.000Z</time>
      </trkpt>
      <trkpt lat="45.83391" lon="4.72017">
        <ele>276.01856</ele>
        <time>2022-07-23T18:52:59.000Z</time>
      </trkpt>
      <trkpt lat="45.83387" lon="4.72015">
        <ele>275.82177</ele>
        <time>2022-07-23T18:53:00.000Z</time>
      </trkpt>
      <trkpt lat="45.83386" lon="4.72013">
        <ele>275.69238</ele>
        <time>2022-07-23T18:53:01.000Z</time>
      </trkpt>
      <trkpt lat="45.83384" lon="4.72011">
        <ele>275.55594</ele>
        <time>2022-07-23T18:53:02.000Z</time>
      </trkpt>
      <trkpt lat="45.8338" lon="4.72009">
        <ele>275.3496</ele>
        <time>2022-07-23T18:53:03.000Z</time>
      </trkpt>
      <trkpt lat="45.83377" lon="4.72005">
        <ele>275.08856</ele>
        <time>2022-07-23T18:53:04.000Z</time>
      </trkpt>
      <trkpt lat="45.83373" lon="4.72001">
        <ele>274.78288</ele>
        <time>2022-07-23T18:53:05.000Z</time>
      </trkpt>
      <trkpt lat="45.83369" lon="4.71997">
        <ele>274.43963</ele>
        <time>2022-07-23T18:53:06.000Z</time>
      </trkpt>
      <trkpt lat="45.83365" lon="4.71994">
        <ele>274.10081</ele>
        <time>2022-07-23T18:53:07.000Z</time>
      </trkpt>
      <trkpt lat="45.83361" lon="4.7199">
        <ele>273.80018</ele>
        <time>2022-07-23T18:53:08.000Z</time>
      </trkpt>
      <trkpt lat="45.83358" lon="4.71988">
        <ele>273.56787</ele>
        <time>2022-07-23T18:53:09.000Z</time>
      </trkpt>
      <trkpt lat="45.83355" lon="4.71985">
        <ele>273.33812</ele>
        <time>2022-07-23T18:53:10.000Z</time>
      </trkpt>
      <trkpt lat="45.83351" lon="4.71981">
        <ele>273.08362</ele>
        <time>2022-07-23T18:53:11.000Z</time>
      </trkpt>
      <trkpt lat="45.83347" lon="4.71978">
        <ele>272.82464</ele>
        <time>2022-07-23T18:53:12.000Z</time>
      </trkpt>
      <trkpt lat="45.83344" lon="4.71975">
        <ele>272.59369</ele>
        <time>2022-07-23T18:53:13.000Z</time>
      </trkpt>
      <trkpt lat="45.8334" lon="4.71972">
        <ele>272.38908</ele>
        <time>2022-07-23T18:53:14.000Z</time>
      </trkpt>
      <trkpt lat="45.83336" lon="4.7197">
        <ele>272.21284</ele>
        <time>2022-07-23T18:53:15.000Z</time>
      </trkpt>
      <trkpt lat="45.83333" lon="4.71968">
        <ele>272.03696</ele>
        <time>2022-07-23T18:53:16.000Z</time>
      </trkpt>
      <trkpt lat="45.8333" lon="4.71964">
        <ele>271.82546</ele>
        <time>2022-07-23T18:53:17.000Z</time>
      </trkpt>
      <trkpt lat="45.83327" lon="4.7196">
        <ele>271.56596</ele>
        <time>2022-07-23T18:53:18.000Z</time>
      </trkpt>
      <trkpt lat="45.83323" lon="4.71954">
        <ele>271.26811</ele>
        <time>2022-07-23T18:53:19.000Z</time>
      </trkpt>
      <trkpt lat="45.83321" lon="4.7195">
        <ele>270.98285</ele>
        <time>2022-07-23T18:53:20.000Z</time>
      </trkpt>
      <trkpt lat="45.8332" lon="4.71946">
        <ele>270.7477</ele>
        <time>2022-07-23T18:53:21.000Z</time>
      </trkpt>
      <trkpt lat="45.83318" lon="4.71942">
        <ele>270.5372</ele>
        <time>2022-07-23T18:53:22.000Z</time>
      </trkpt>
      <trkpt lat="45.83317" lon="4.71939">
        <ele>270.32579</ele>
        <time>2022-07-23T18:53:23.000Z</time>
      </trkpt>
      <trkpt lat="45.83315" lon="4.71935">
        <ele>270.11507</ele>
        <time>2022-07-23T18:53:24.000Z</time>
      </trkpt>
      <trkpt lat="45.83312" lon="4.71931">
        <ele>269.94785</ele>
        <time>2022-07-23T18:53:25.000Z</time>
      </trkpt>
      <trkpt lat="45.83309" lon="4.71927">
        <ele>269.81166</ele>
        <time>2022-07-23T18:53:26.000Z</time>
      </trkpt>
      <trkpt lat="45.83308" lon="4.71925">
        <ele>269.75802</ele>
        <time>2022-07-23T18:53:27.000Z</time>
      </trkpt>
      <trkpt lat="45.83306" lon="4.71923">
        <ele>269.73125</ele>
        <time>2022-07-23T18:53:28.000Z</time>
      </trkpt>
      <trkpt lat="45.83304" lon="4.71921">
        <ele>269.70323</ele>
        <time>2022-07-23T18:53:29.000Z</time>
      </trkpt>
      <trkpt lat="45.83302" lon="4.71919">
        <ele>269.70047</ele>
        <time>2022-07-23T18:53:30.000Z</time>
      </trkpt>
      <trkpt lat="45.83299" lon="4.71916">
        <ele>269.74071</ele>
        <time>2022-07-23T18:53:31.000Z</time>
      </trkpt>
      <trkpt lat="45.83294" lon="4.71912">
        <ele>269.85695</ele>
        <time>2022-07-23T18:53:32.000Z</time>
      </trkpt>
      <trkpt lat="45.8329" lon="4.71909">
        <ele>270.02075</ele>
        <time>2022-07-23T18:53:33.000Z</time>
      </trkpt>
      <trkpt lat="45.83285" lon="4.71905">
        <ele>270.23987</ele>
        <time>2022-07-23T18:53:34.000Z</time>
      </trkpt>
      <trkpt lat="45.83281" lon="4.71902">
        <ele>270.49401</ele>
        <time>2022-07-23T18:53:35.000Z</time>
      </trkpt>
      <trkpt lat="45.83277" lon="4.71899">
        <ele>270.78349</ele>
        <time>2022-07-23T18:53:36.000Z</time>
      </trkpt>
      <trkpt lat="45.83272" lon="4.71896">
        <ele>271.13079</ele>
        <time>2022-07-23T18:53:37.000Z</time>
      </trkpt>
      <trkpt lat="45.83268" lon="4.71893">
        <ele>271.48945</ele>
        <time>2022-07-23T18:53:38.000Z</time>
      </trkpt>
      <trkpt lat="45.83265" lon="4.7189">
        <ele>271.90041</ele>
        <time>2022-07-23T18:53:39.000Z</time>
      </trkpt>
      <trkpt lat="45.83262" lon="4.71887">
        <ele>272.31336</ele>
        <time>2022-07-23T18:53:40.000Z</time>
      </trkpt>
      <trkpt lat="45.83259" lon="4.71884">
        <ele>272.67166</ele>
        <time>2022-07-23T18:53:41.000Z</time>
      </trkpt>
      <trkpt lat="45.83256" lon="4.71881">
        <ele>273.14761</ele>
        <time>2022-07-23T18:53:42.000Z</time>
      </trkpt>
      <trkpt lat="45.83251" lon="4.71878">
        <ele>273.69232</ele>
        <time>2022-07-23T18:53:43.000Z</time>
      </trkpt>
      <trkpt lat="45.83248" lon="4.71875">
        <ele>274.11313</ele>
        <time>2022-07-23T18:53:44.000Z</time>
      </trkpt>
      <trkpt lat="45.83245" lon="4.71872">
        <ele>274.45704</ele>
        <time>2022-07-23T18:53:45.000Z</time>
      </trkpt>
      <trkpt lat="45.83243" lon="4.7187">
        <ele>274.70865</ele>
        <time>2022-07-23T18:53:46.000Z</time>
      </trkpt>
      <trkpt lat="45.83241" lon="4.71869">
        <ele>274.87151</ele>
        <time>2022-07-23T18:53:47.000Z</time>
      </trkpt>
      <trkpt lat="45.83239" lon="4.71867">
        <ele>275.06996</ele>
        <time>2022-07-23T18:53:48.000Z</time>
      </trkpt>
      <trkpt lat="45.83235" lon="4.71865">
        <ele>275.29893</ele>
        <time>2022-07-23T18:53:49.000Z</time>
      </trkpt>
      <trkpt lat="45.83229" lon="4.71864">
        <ele>275.49816</ele>
        <time>2022-07-23T18:53:50.000Z</time>
      </trkpt>
      <trkpt lat="45.83224" lon="4.71862">
        <ele>275.6366</ele>
        <time>2022-07-23T18:53:51.000Z</time>
      </trkpt>
      <trkpt lat="45.83219" lon="4.71861">
        <ele>275.62949</ele>
        <time>2022-07-23T18:53:52.000Z</time>
      </trkpt>
      <trkpt lat="45.83214" lon="4.71859">
        <ele>275.64788</ele>
        <time>2022-07-23T18:53:53.000Z</time>
      </trkpt>
      <trkpt lat="45.83209" lon="4.71858">
        <ele>275.71747</ele>
        <time>2022-07-23T18:53:54.000Z</time>
      </trkpt>
      <trkpt lat="45.83205" lon="4.71856">
        <ele>275.87607</ele>
        <time>2022-07-23T18:53:55.000Z</time>
      </trkpt>
      <trkpt lat="45.83201" lon="4.71855">
        <ele>276.16889</ele>
        <time>2022-07-23T18:53:56.000Z</time>
      </trkpt>
      <trkpt lat="45.83196" lon="4.71854">
        <ele>276.59103</ele>
        <time>2022-07-23T18:53:57.000Z</time>
      </trkpt>
      <trkpt lat="45.83191" lon="4.71853">
        <ele>276.95863</ele>
        <time>2022-07-23T18:53:58.000Z</time>
      </trkpt>
      <trkpt lat="45.83187" lon="4.71853">
        <ele>277.21482</ele>
        <time>2022-07-23T18:53:59.000Z</time>
      </trkpt>
      <trkpt lat="45.83184" lon="4.71854">
        <ele>277.41053</ele>
        <time>2022-07-23T18:54:00.000Z</time>
      </trkpt>
      <trkpt lat="45.8318" lon="4.71854">
        <ele>277.56421</ele>
        <time>2022-07-23T18:54:01.000Z</time>
      </trkpt>
      <trkpt lat="45.83176" lon="4.71855">
        <ele>277.72944</ele>
        <time>2022-07-23T18:54:02.000Z</time>
      </trkpt>
      <trkpt lat="45.83171" lon="4.71856">
        <ele>277.92024</ele>
        <time>2022-07-23T18:54:03.000Z</time>
      </trkpt>
      <trkpt lat="45.83167" lon="4.71856">
        <ele>278.11245</ele>
        <time>2022-07-23T18:54:04.000Z</time>
      </trkpt>
      <trkpt lat="45.83164" lon="4.71856">
        <ele>278.23731</ele>
        <time>2022-07-23T18:54:05.000Z</time>
      </trkpt>
      <trkpt lat="45.83161" lon="4.71857">
        <ele>278.41916</ele>
        <time>2022-07-23T18:54:06.000Z</time>
      </trkpt>
      <trkpt lat="45.83156" lon="4.71856">
        <ele>278.68011</ele>
        <time>2022-07-23T18:54:07.000Z</time>
      </trkpt>
      <trkpt lat="45.83151" lon="4.71856">
        <ele>279.08321</ele>
        <time>2022-07-23T18:54:08.000Z</time>
      </trkpt>
      <trkpt lat="45.83146" lon="4.71854">
        <ele>279.56539</ele>
        <time>2022-07-23T18:54:09.000Z</time>
      </trkpt>
      <trkpt lat="45.83141" lon="4.71852">
        <ele>280.04171</ele>
        <time>2022-07-23T18:54:10.000Z</time>
      </trkpt>
      <trkpt lat="45.83137" lon="4.7185">
        <ele>280.4402</ele>
        <time>2022-07-23T18:54:11.000Z</time>
      </trkpt>
      <trkpt lat="45.83133" lon="4.71848">
        <ele>280.75984</ele>
        <time>2022-07-23T18:54:12.000Z</time>
      </trkpt>
      <trkpt lat="45.83129" lon="4.71846">
        <ele>281.00865</ele>
        <time>2022-07-23T18:54:13.000Z</time>
      </trkpt>
      <trkpt lat="45.83125" lon="4.71845">
        <ele>281.23166</ele>
        <time>2022-07-23T18:54:14.000Z</time>
      </trkpt>
      <trkpt lat="45.83121" lon="4.71842">
        <ele>281.47256</ele>
        <time>2022-07-23T18:54:15.000Z</time>
      </trkpt>
      <trkpt lat="45.83117" lon="4.7184">
        <ele>281.7401</ele>
        <time>2022-07-23T18:54:16.000Z</time>
      </trkpt>
      <trkpt lat="45.83113" lon="4.71837">
        <ele>282.0484</ele>
        <time>2022-07-23T18:54:17.000Z</time>
      </trkpt>
      <trkpt lat="45.83109" lon="4.71835">
        <ele>282.37178</ele>
        <time>2022-07-23T18:54:18.000Z</time>
      </trkpt>
      <trkpt lat="45.83105" lon="4.71833">
        <ele>282.73547</ele>
        <time>2022-07-23T18:54:19.000Z</time>
      </trkpt>
      <trkpt lat="45.83101" lon="4.7183">
        <ele>283.1495</ele>
        <time>2022-07-23T18:54:20.000Z</time>
      </trkpt>
      <trkpt lat="45.83098" lon="4.71828">
        <ele>283.44852</ele>
        <time>2022-07-23T18:54:21.000Z</time>
      </trkpt>
      <trkpt lat="45.83096" lon="4.71827">
        <ele>283.7168</ele>
        <time>2022-07-23T18:54:22.000Z</time>
      </trkpt>
      <trkpt lat="45.83092" lon="4.71825">
        <ele>284.04606</ele>
        <time>2022-07-23T18:54:23.000Z</time>
      </trkpt>
      <trkpt lat="45.83089" lon="4.71822">
        <ele>284.38986</ele>
        <time>2022-07-23T18:54:24.000Z</time>
      </trkpt>
      <trkpt lat="45.83085" lon="4.7182">
        <ele>284.7293</ele>
        <time>2022-07-23T18:54:25.000Z</time>
      </trkpt>
      <trkpt lat="45.83082" lon="4.71817">
        <ele>285.08233</ele>
        <time>2022-07-23T18:54:26.000Z</time>
      </trkpt>
      <trkpt lat="45.83077" lon="4.71814">
        <ele>285.42989</ele>
        <time>2022-07-23T18:54:27.000Z</time>
      </trkpt>
      <trkpt lat="45.83073" lon="4.7181">
        <ele>285.78901</ele>
        <time>2022-07-23T18:54:28.000Z</time>
      </trkpt>
      <trkpt lat="45.83069" lon="4.71807">
        <ele>286.14873</ele>
        <time>2022-07-23T18:54:29.000Z</time>
      </trkpt>
      <trkpt lat="45.83064" lon="4.71805">
        <ele>286.48698</ele>
        <time>2022-07-23T18:54:30.000Z</time>
      </trkpt>
      <trkpt lat="45.8306" lon="4.71802">
        <ele>286.80788</ele>
        <time>2022-07-23T18:54:31.000Z</time>
      </trkpt>
      <trkpt lat="45.83055" lon="4.718">
        <ele>287.10975</ele>
        <time>2022-07-23T18:54:32.000Z</time>
      </trkpt>
      <trkpt lat="45.83049" lon="4.71797">
        <ele>287.44464</ele>
        <time>2022-07-23T18:54:33.000Z</time>
      </trkpt>
      <trkpt lat="45.83043" lon="4.71793">
        <ele>287.76924</ele>
        <time>2022-07-23T18:54:34.000Z</time>
      </trkpt>
      <trkpt lat="45.83038" lon="4.7179">
        <ele>288.01449</ele>
        <time>2022-07-23T18:54:35.000Z</time>
      </trkpt>
      <trkpt lat="45.83033" lon="4.71787">
        <ele>288.21946</ele>
        <time>2022-07-23T18:54:36.000Z</time>
      </trkpt>
      <trkpt lat="45.83028" lon="4.71784">
        <ele>288.41247</ele>
        <time>2022-07-23T18:54:37.000Z</time>
      </trkpt>
      <trkpt lat="45.83022" lon="4.71782">
        <ele>288.6038</ele>
        <time>2022-07-23T18:54:38.000Z</time>
      </trkpt>
      <trkpt lat="45.83017" lon="4.7178">
        <ele>288.77361</ele>
        <time>2022-07-23T18:54:39.000Z</time>
      </trkpt>
      <trkpt lat="45.83011" lon="4.71779">
        <ele>288.93335</ele>
        <time>2022-07-23T18:54:40.000Z</time>
      </trkpt>
      <trkpt lat="45.83006" lon="4.71777">
        <ele>289.07341</ele>
        <time>2022-07-23T18:54:41.000Z</time>
      </trkpt>
      <trkpt lat="45.83002" lon="4.71776">
        <ele>289.18936</ele>
        <time>2022-07-23T18:54:42.000Z</time>
      </trkpt>
      <trkpt lat="45.82998" lon="4.71774">
        <ele>289.29887</ele>
        <time>2022-07-23T18:54:43.000Z</time>
      </trkpt>
      <trkpt lat="45.82994" lon="4.71772">
        <ele>289.40552</ele>
        <time>2022-07-23T18:54:44.000Z</time>
      </trkpt>
      <trkpt lat="45.8299" lon="4.71771">
        <ele>289.51527</ele>
        <time>2022-07-23T18:54:45.000Z</time>
      </trkpt>
      <trkpt lat="45.82985" lon="4.7177">
        <ele>289.62002</ele>
        <time>2022-07-23T18:54:46.000Z</time>
      </trkpt>
      <trkpt lat="45.8298" lon="4.71769">
        <ele>289.69836</ele>
        <time>2022-07-23T18:54:47.000Z</time>
      </trkpt>
      <trkpt lat="45.82976" lon="4.7177">
        <ele>289.73623</ele>
        <time>2022-07-23T18:54:48.000Z</time>
      </trkpt>
      <trkpt lat="45.82972" lon="4.71771">
        <ele>289.73684</ele>
        <time>2022-07-23T18:54:49.000Z</time>
      </trkpt>
      <trkpt lat="45.82967" lon="4.71773">
        <ele>289.70626</ele>
        <time>2022-07-23T18:54:50.000Z</time>
      </trkpt>
      <trkpt lat="45.82963" lon="4.71775">
        <ele>289.6584</ele>
        <time>2022-07-23T18:54:51.000Z</time>
      </trkpt>
      <trkpt lat="45.82959" lon="4.71777">
        <ele>289.62049</ele>
        <time>2022-07-23T18:54:52.000Z</time>
      </trkpt>
      <trkpt lat="45.82954" lon="4.71779">
        <ele>289.61125</ele>
        <time>2022-07-23T18:54:53.000Z</time>
      </trkpt>
      <trkpt lat="45.8295" lon="4.71781">
        <ele>289.64186</ele>
        <time>2022-07-23T18:54:54.000Z</time>
      </trkpt>
      <trkpt lat="45.82946" lon="4.71782">
        <ele>289.69439</ele>
        <time>2022-07-23T18:54:55.000Z</time>
      </trkpt>
      <trkpt lat="45.82942" lon="4.71782">
        <ele>289.75335</ele>
        <time>2022-07-23T18:54:56.000Z</time>
      </trkpt>
      <trkpt lat="45.82938" lon="4.71782">
        <ele>289.80569</ele>
        <time>2022-07-23T18:54:57.000Z</time>
      </trkpt>
      <trkpt lat="45.82934" lon="4.71782">
        <ele>289.84555</ele>
        <time>2022-07-23T18:54:58.000Z</time>
      </trkpt>
      <trkpt lat="45.82931" lon="4.71782">
        <ele>289.8717</ele>
        <time>2022-07-23T18:54:59.000Z</time>
      </trkpt>
      <trkpt lat="45.82927" lon="4.71783">
        <ele>289.88269</ele>
        <time>2022-07-23T18:55:00.000Z</time>
      </trkpt>
      <trkpt lat="45.82924" lon="4.71783">
        <ele>289.87686</ele>
        <time>2022-07-23T18:55:01.000Z</time>
      </trkpt>
      <trkpt lat="45.82922" lon="4.71784">
        <ele>289.85766</ele>
        <time>2022-07-23T18:55:02.000Z</time>
      </trkpt>
      <trkpt lat="45.82919" lon="4.71784">
        <ele>289.84312</ele>
        <time>2022-07-23T18:55:03.000Z</time>
      </trkpt>
      <trkpt lat="45.82917" lon="4.71784">
        <ele>289.84209</ele>
        <time>2022-07-23T18:55:04.000Z</time>
      </trkpt>
      <trkpt lat="45.82914" lon="4.71785">
        <ele>289.83673</ele>
        <time>2022-07-23T18:55:05.000Z</time>
      </trkpt>
      <trkpt lat="45.82911" lon="4.71785">
        <ele>289.84648</ele>
        <time>2022-07-23T18:55:06.000Z</time>
      </trkpt>
      <trkpt lat="45.82908" lon="4.71785">
        <ele>289.85588</ele>
        <time>2022-07-23T18:55:07.000Z</time>
      </trkpt>
      <trkpt lat="45.82905" lon="4.71785">
        <ele>289.86192</ele>
        <time>2022-07-23T18:55:08.000Z</time>
      </trkpt>
      <trkpt lat="45.82901" lon="4.71785">
        <ele>289.86996</ele>
        <time>2022-07-23T18:55:09.000Z</time>
      </trkpt>
      <trkpt lat="45.82897" lon="4.71785">
        <ele>289.87454</ele>
        <time>2022-07-23T18:55:10.000Z</time>
      </trkpt>
      <trkpt lat="45.82893" lon="4.71785">
        <ele>289.88137</ele>
        <time>2022-07-23T18:55:11.000Z</time>
      </trkpt>
      <trkpt lat="45.82889" lon="4.71785">
        <ele>289.90063</ele>
        <time>2022-07-23T18:55:12.000Z</time>
      </trkpt>
      <trkpt lat="45.82884" lon="4.71785">
        <ele>289.93534</ele>
        <time>2022-07-23T18:55:13.000Z</time>
      </trkpt>
      <trkpt lat="45.82879" lon="4.71785">
        <ele>289.97343</ele>
        <time>2022-07-23T18:55:14.000Z</time>
      </trkpt>
      <trkpt lat="45.82875" lon="4.71785">
        <ele>289.98803</ele>
        <time>2022-07-23T18:55:15.000Z</time>
      </trkpt>
      <trkpt lat="45.82871" lon="4.71785">
        <ele>289.96975</ele>
        <time>2022-07-23T18:55:16.000Z</time>
      </trkpt>
      <trkpt lat="45.82867" lon="4.71785">
        <ele>289.90715</ele>
        <time>2022-07-23T18:55:17.000Z</time>
      </trkpt>
      <trkpt lat="45.82862" lon="4.71786">
        <ele>289.79579</ele>
        <time>2022-07-23T18:55:18.000Z</time>
      </trkpt>
      <trkpt lat="45.82858" lon="4.71786">
        <ele>289.68776</ele>
        <time>2022-07-23T18:55:19.000Z</time>
      </trkpt>
      <trkpt lat="45.82855" lon="4.71786">
        <ele>289.59329</ele>
        <time>2022-07-23T18:55:20.000Z</time>
      </trkpt>
      <trkpt lat="45.82851" lon="4.71786">
        <ele>289.50369</ele>
        <time>2022-07-23T18:55:21.000Z</time>
      </trkpt>
      <trkpt lat="45.82848" lon="4.71786">
        <ele>289.41671</ele>
        <time>2022-07-23T18:55:22.000Z</time>
      </trkpt>
      <trkpt lat="45.82845" lon="4.71786">
        <ele>289.34401</ele>
        <time>2022-07-23T18:55:23.000Z</time>
      </trkpt>
      <trkpt lat="45.82842" lon="4.71786">
        <ele>289.26396</ele>
        <time>2022-07-23T18:55:24.000Z</time>
      </trkpt>
      <trkpt lat="45.8284" lon="4.71786">
        <ele>289.18869</ele>
        <time>2022-07-23T18:55:25.000Z</time>
      </trkpt>
      <trkpt lat="45.8284" lon="4.71786">
        <ele>289.18869</ele>
        <time>2022-07-23T18:55:25.000Z</time>
      </trkpt>
      <trkpt lat="45.82838" lon="4.71786">
        <ele>289.12031</ele>
        <time>2022-07-23T18:55:26.000Z</time>
      </trkpt>
      <trkpt lat="45.82836" lon="4.71785">
        <ele>289.04911</ele>
        <time>2022-07-23T18:55:28.000Z</time>
      </trkpt>
      <trkpt lat="45.82834" lon="4.71782">
        <ele>288.95797</ele>
        <time>2022-07-23T18:55:30.000Z</time>
      </trkpt>
      <trkpt lat="45.82834" lon="4.71778">
        <ele>288.88974</ele>
        <time>2022-07-23T18:55:32.000Z</time>
      </trkpt>
      <trkpt lat="45.82833" lon="4.71773">
        <ele>288.76005</ele>
        <time>2022-07-23T18:55:34.000Z</time>
      </trkpt>
      <trkpt lat="45.82831" lon="4.7177">
        <ele>288.63517</ele>
        <time>2022-07-23T18:55:35.000Z</time>
      </trkpt>
      <trkpt lat="45.8283" lon="4.71768">
        <ele>288.52261</ele>
        <time>2022-07-23T18:55:36.000Z</time>
      </trkpt>
      <trkpt lat="45.82829" lon="4.71765">
        <ele>288.40766</ele>
        <time>2022-07-23T18:55:37.000Z</time>
      </trkpt>
      <trkpt lat="45.82828" lon="4.71761">
        <ele>288.25086</ele>
        <time>2022-07-23T18:55:38.000Z</time>
      </trkpt>
      <trkpt lat="45.82827" lon="4.71756">
        <ele>288.07619</ele>
        <time>2022-07-23T18:55:39.000Z</time>
      </trkpt>
      <trkpt lat="45.82826" lon="4.71752">
        <ele>287.92748</ele>
        <time>2022-07-23T18:55:40.000Z</time>
      </trkpt>
      <trkpt lat="45.82825" lon="4.71748">
        <ele>287.78609</ele>
        <time>2022-07-23T18:55:41.000Z</time>
      </trkpt>
      <trkpt lat="45.82824" lon="4.71744">
        <ele>287.66379</ele>
        <time>2022-07-23T18:55:42.000Z</time>
      </trkpt>
      <trkpt lat="45.82823" lon="4.7174">
        <ele>287.54403</ele>
        <time>2022-07-23T18:55:43.000Z</time>
      </trkpt>
      <trkpt lat="45.82822" lon="4.71736">
        <ele>287.44601</ele>
        <time>2022-07-23T18:55:44.000Z</time>
      </trkpt>
      <trkpt lat="45.8282" lon="4.71732">
        <ele>287.39201</ele>
        <time>2022-07-23T18:55:45.000Z</time>
      </trkpt>
      <trkpt lat="45.82819" lon="4.71729">
        <ele>287.2951</ele>
        <time>2022-07-23T18:55:46.000Z</time>
      </trkpt>
      <trkpt lat="45.82821" lon="4.71725">
        <ele>287.01118</ele>
        <time>2022-07-23T18:55:47.000Z</time>
      </trkpt>
      <trkpt lat="45.82823" lon="4.71722">
        <ele>286.79083</ele>
        <time>2022-07-23T18:55:48.000Z</time>
      </trkpt>
      <trkpt lat="45.82826" lon="4.7172">
        <ele>286.72422</ele>
        <time>2022-07-23T18:55:49.000Z</time>
      </trkpt>
      <trkpt lat="45.82828" lon="4.71717">
        <ele>286.68148</ele>
        <time>2022-07-23T18:55:50.000Z</time>
      </trkpt>
      <trkpt lat="45.82829" lon="4.71713">
        <ele>286.59057</ele>
        <time>2022-07-23T18:55:51.000Z</time>
      </trkpt>
      <trkpt lat="45.82828" lon="4.71709">
        <ele>286.38309</ele>
        <time>2022-07-23T18:55:52.000Z</time>
      </trkpt>
      <trkpt lat="45.82828" lon="4.71706">
        <ele>286.14833</ele>
        <time>2022-07-23T18:55:53.000Z</time>
      </trkpt>
      <trkpt lat="45.82826" lon="4.71702">
        <ele>285.88204</ele>
        <time>2022-07-23T18:55:54.000Z</time>
      </trkpt>
      <trkpt lat="45.82826" lon="4.71698">
        <ele>285.64189</ele>
        <time>2022-07-23T18:55:55.000Z</time>
      </trkpt>
      <trkpt lat="45.82826" lon="4.71693">
        <ele>285.40019</ele>
        <time>2022-07-23T18:55:56.000Z</time>
      </trkpt>
      <trkpt lat="45.82827" lon="4.71689">
        <ele>285.18953</ele>
        <time>2022-07-23T18:55:57.000Z</time>
      </trkpt>
      <trkpt lat="45.82829" lon="4.71683">
        <ele>284.99343</ele>
        <time>2022-07-23T18:55:58.000Z</time>
      </trkpt>
      <trkpt lat="45.82832" lon="4.71677">
        <ele>284.77938</ele>
        <time>2022-07-23T18:55:59.000Z</time>
      </trkpt>
      <trkpt lat="45.82838" lon="4.71667">
        <ele>284.34969</ele>
        <time>2022-07-23T18:56:00.000Z</time>
      </trkpt>
      <trkpt lat="45.8284" lon="4.71661">
        <ele>283.92313</ele>
        <time>2022-07-23T18:56:01.000Z</time>
      </trkpt>
      <trkpt lat="45.82844" lon="4.71654">
        <ele>283.46416</ele>
        <time>2022-07-23T18:56:02.000Z</time>
      </trkpt>
      <trkpt lat="45.82847" lon="4.71648">
        <ele>283.13142</ele>
        <time>2022-07-23T18:56:03.000Z</time>
      </trkpt>
      <trkpt lat="45.82852" lon="4.71638">
        <ele>282.64328</ele>
        <time>2022-07-23T18:56:04.000Z</time>
      </trkpt>
      <trkpt lat="45.82855" lon="4.7163">
        <ele>282.17195</ele>
        <time>2022-07-23T18:56:05.000Z</time>
      </trkpt>
      <trkpt lat="45.82858" lon="4.71622">
        <ele>281.6877</ele>
        <time>2022-07-23T18:56:06.000Z</time>
      </trkpt>
      <trkpt lat="45.82861" lon="4.71616">
        <ele>281.32179</ele>
        <time>2022-07-23T18:56:07.000Z</time>
      </trkpt>
      <trkpt lat="45.82864" lon="4.71608">
        <ele>280.97527</ele>
        <time>2022-07-23T18:56:08.000Z</time>
      </trkpt>
      <trkpt lat="45.82868" lon="4.716">
        <ele>280.67965</ele>
        <time>2022-07-23T18:56:09.000Z</time>
      </trkpt>
      <trkpt lat="45.82871" lon="4.71592">
        <ele>280.4692</ele>
        <time>2022-07-23T18:56:10.000Z</time>
      </trkpt>
      <trkpt lat="45.82876" lon="4.71587">
        <ele>280.24045</ele>
        <time>2022-07-23T18:56:11.000Z</time>
      </trkpt>
      <trkpt lat="45.82884" lon="4.71574">
        <ele>279.73001</ele>
        <time>2022-07-23T18:56:12.000Z</time>
      </trkpt>
      <trkpt lat="45.82888" lon="4.71567">
        <ele>279.43566</ele>
        <time>2022-07-23T18:56:13.000Z</time>
      </trkpt>
      <trkpt lat="45.82892" lon="4.71562">
        <ele>279.16932</ele>
        <time>2022-07-23T18:56:14.000Z</time>
      </trkpt>
      <trkpt lat="45.82898" lon="4.71556">
        <ele>278.90726</ele>
        <time>2022-07-23T18:56:15.000Z</time>
      </trkpt>
      <trkpt lat="45.82903" lon="4.7155">
        <ele>278.76228</ele>
        <time>2022-07-23T18:56:16.000Z</time>
      </trkpt>
      <trkpt lat="45.82909" lon="4.71544">
        <ele>278.60918</ele>
        <time>2022-07-23T18:56:17.000Z</time>
      </trkpt>
      <trkpt lat="45.82914" lon="4.71538">
        <ele>278.35818</ele>
        <time>2022-07-23T18:56:18.000Z</time>
      </trkpt>
      <trkpt lat="45.82918" lon="4.71532">
        <ele>278.06546</ele>
        <time>2022-07-23T18:56:19.000Z</time>
      </trkpt>
      <trkpt lat="45.82923" lon="4.71527">
        <ele>277.80071</ele>
        <time>2022-07-23T18:56:20.000Z</time>
      </trkpt>
      <trkpt lat="45.82928" lon="4.71522">
        <ele>277.56254</ele>
        <time>2022-07-23T18:56:21.000Z</time>
      </trkpt>
      <trkpt lat="45.82932" lon="4.71518">
        <ele>277.39759</ele>
        <time>2022-07-23T18:56:22.000Z</time>
      </trkpt>
      <trkpt lat="45.82937" lon="4.71514">
        <ele>277.23451</ele>
        <time>2022-07-23T18:56:23.000Z</time>
      </trkpt>
      <trkpt lat="45.82941" lon="4.7151">
        <ele>277.06837</ele>
        <time>2022-07-23T18:56:24.000Z</time>
      </trkpt>
      <trkpt lat="45.82947" lon="4.71507">
        <ele>276.80663</ele>
        <time>2022-07-23T18:56:25.000Z</time>
      </trkpt>
      <trkpt lat="45.82952" lon="4.71504">
        <ele>276.59258</ele>
        <time>2022-07-23T18:56:26.000Z</time>
      </trkpt>
      <trkpt lat="45.82956" lon="4.715">
        <ele>276.45653</ele>
        <time>2022-07-23T18:56:27.000Z</time>
      </trkpt>
      <trkpt lat="45.82962" lon="4.71496">
        <ele>276.38089</ele>
        <time>2022-07-23T18:56:28.000Z</time>
      </trkpt>
      <trkpt lat="45.82966" lon="4.71493">
        <ele>276.39372</ele>
        <time>2022-07-23T18:56:29.000Z</time>
      </trkpt>
      <trkpt lat="45.82971" lon="4.7149">
        <ele>276.46576</ele>
        <time>2022-07-23T18:56:30.000Z</time>
      </trkpt>
      <trkpt lat="45.82976" lon="4.71488">
        <ele>276.53758</ele>
        <time>2022-07-23T18:56:31.000Z</time>
      </trkpt>
      <trkpt lat="45.8298" lon="4.71488">
        <ele>276.60152</ele>
        <time>2022-07-23T18:56:32.000Z</time>
      </trkpt>
      <trkpt lat="45.82985" lon="4.71486">
        <ele>276.61607</ele>
        <time>2022-07-23T18:56:33.000Z</time>
      </trkpt>
      <trkpt lat="45.8299" lon="4.71485">
        <ele>276.59251</ele>
        <time>2022-07-23T18:56:34.000Z</time>
      </trkpt>
      <trkpt lat="45.82995" lon="4.71485">
        <ele>276.55073</ele>
        <time>2022-07-23T18:56:35.000Z</time>
      </trkpt>
      <trkpt lat="45.83" lon="4.71483">
        <ele>276.48679</ele>
        <time>2022-07-23T18:56:36.000Z</time>
      </trkpt>
      <trkpt lat="45.83004" lon="4.71485">
        <ele>276.495</ele>
        <time>2022-07-23T18:56:37.000Z</time>
      </trkpt>
      <trkpt lat="45.83006" lon="4.71485">
        <ele>276.50772</ele>
        <time>2022-07-23T18:56:38.000Z</time>
      </trkpt>
      <trkpt lat="45.83008" lon="4.71483">
        <ele>276.46191</ele>
        <time>2022-07-23T18:56:40.000Z</time>
      </trkpt>
      <trkpt lat="45.83009" lon="4.71479">
        <ele>276.43262</ele>
        <time>2022-07-23T18:56:41.000Z</time>
      </trkpt>
      <trkpt lat="45.83008" lon="4.71475">
        <ele>276.43653</ele>
        <time>2022-07-23T18:56:42.000Z</time>
      </trkpt>
      <trkpt lat="45.83004" lon="4.71473">
        <ele>276.39677</ele>
        <time>2022-07-23T18:56:44.000Z</time>
      </trkpt>
      <trkpt lat="45.83001" lon="4.71472">
        <ele>276.39257</ele>
        <time>2022-07-23T18:56:45.000Z</time>
      </trkpt>
      <trkpt lat="45.82998" lon="4.71472">
        <ele>276.39609</ele>
        <time>2022-07-23T18:56:46.000Z</time>
      </trkpt>
      <trkpt lat="45.82996" lon="4.71471">
        <ele>276.41692</ele>
        <time>2022-07-23T18:56:47.000Z</time>
      </trkpt>
      <trkpt lat="45.82993" lon="4.71468">
        <ele>276.46577</ele>
        <time>2022-07-23T18:56:48.000Z</time>
      </trkpt>
      <trkpt lat="45.82988" lon="4.71459">
        <ele>276.73307</ele>
        <time>2022-07-23T18:56:49.000Z</time>
      </trkpt>
      <trkpt lat="45.82984" lon="4.71452">
        <ele>276.86052</ele>
        <time>2022-07-23T18:56:50.000Z</time>
      </trkpt>
      <trkpt lat="45.82983" lon="4.71444">
        <ele>277.16856</ele>
        <time>2022-07-23T18:56:51.000Z</time>
      </trkpt>
      <trkpt lat="45.8298" lon="4.71437">
        <ele>277.53373</ele>
        <time>2022-07-23T18:56:52.000Z</time>
      </trkpt>
      <trkpt lat="45.82975" lon="4.71431">
        <ele>277.96072</ele>
        <time>2022-07-23T18:56:53.000Z</time>
      </trkpt>
      <trkpt lat="45.82973" lon="4.71425">
        <ele>278.53598</ele>
        <time>2022-07-23T18:56:54.000Z</time>
      </trkpt>
      <trkpt lat="45.82975" lon="4.71415">
        <ele>279.77264</ele>
        <time>2022-07-23T18:56:55.000Z</time>
      </trkpt>
      <trkpt lat="45.82974" lon="4.71408">
        <ele>280.65792</ele>
        <time>2022-07-23T18:56:56.000Z</time>
      </trkpt>
      <trkpt lat="45.82971" lon="4.71404">
        <ele>280.84806</ele>
        <time>2022-07-23T18:56:57.000Z</time>
      </trkpt>
      <trkpt lat="45.82967" lon="4.71402">
        <ele>280.64206</ele>
        <time>2022-07-23T18:56:58.000Z</time>
      </trkpt>
      <trkpt lat="45.82962" lon="4.71397">
        <ele>280.96497</ele>
        <time>2022-07-23T18:56:59.000Z</time>
      </trkpt>
      <trkpt lat="45.82955" lon="4.71389">
        <ele>281.82118</ele>
        <time>2022-07-23T18:57:00.000Z</time>
      </trkpt>
      <trkpt lat="45.82953" lon="4.71385">
        <ele>282.48724</ele>
        <time>2022-07-23T18:57:01.000Z</time>
      </trkpt>
      <trkpt lat="45.82947" lon="4.7138">
        <ele>282.90423</ele>
        <time>2022-07-23T18:57:02.000Z</time>
      </trkpt>
      <trkpt lat="45.82943" lon="4.71376">
        <ele>283.17338</ele>
        <time>2022-07-23T18:57:03.000Z</time>
      </trkpt>
      <trkpt lat="45.82935" lon="4.71373">
        <ele>283.10915</ele>
        <time>2022-07-23T18:57:04.000Z</time>
      </trkpt>
      <trkpt lat="45.82933" lon="4.7137">
        <ele>283.35629</ele>
        <time>2022-07-23T18:57:05.000Z</time>
      </trkpt>
      <trkpt lat="45.8293" lon="4.71364">
        <ele>283.78368</ele>
        <time>2022-07-23T18:57:06.000Z</time>
      </trkpt>
      <trkpt lat="45.82932" lon="4.7136">
        <ele>284.2415</ele>
        <time>2022-07-23T18:57:07.000Z</time>
      </trkpt>
      <trkpt lat="45.82932" lon="4.71356">
        <ele>284.48031</ele>
        <time>2022-07-23T18:57:08.000Z</time>
      </trkpt>
      <trkpt lat="45.82933" lon="4.71351">
        <ele>284.97521</ele>
        <time>2022-07-23T18:57:09.000Z</time>
      </trkpt>
      <trkpt lat="45.82936" lon="4.71345">
        <ele>285.67595</ele>
        <time>2022-07-23T18:57:10.000Z</time>
      </trkpt>
      <trkpt lat="45.82938" lon="4.71336">
        <ele>286.5204</ele>
        <time>2022-07-23T18:57:11.000Z</time>
      </trkpt>
      <trkpt lat="45.8294" lon="4.71329">
        <ele>287.40005</ele>
        <time>2022-07-23T18:57:12.000Z</time>
      </trkpt>
      <trkpt lat="45.82941" lon="4.71323">
        <ele>288.07083</ele>
        <time>2022-07-23T18:57:13.000Z</time>
      </trkpt>
      <trkpt lat="45.82944" lon="4.71317">
        <ele>288.90904</ele>
        <time>2022-07-23T18:57:14.000Z</time>
      </trkpt>
      <trkpt lat="45.82948" lon="4.71312">
        <ele>289.68382</ele>
        <time>2022-07-23T18:57:15.000Z</time>
      </trkpt>
      <trkpt lat="45.82951" lon="4.71309">
        <ele>290.12314</ele>
        <time>2022-07-23T18:57:16.000Z</time>
      </trkpt>
      <trkpt lat="45.82954" lon="4.71307">
        <ele>290.544</ele>
        <time>2022-07-23T18:57:17.000Z</time>
      </trkpt>
      <trkpt lat="45.82956" lon="4.71305">
        <ele>290.92553</ele>
        <time>2022-07-23T18:57:18.000Z</time>
      </trkpt>
      <trkpt lat="45.82959" lon="4.71303">
        <ele>291.24348</ele>
        <time>2022-07-23T18:57:19.000Z</time>
      </trkpt>
      <trkpt lat="45.82961" lon="4.71302">
        <ele>291.52553</ele>
        <time>2022-07-23T18:57:20.000Z</time>
      </trkpt>
      <trkpt lat="45.82964" lon="4.71302">
        <ele>291.81066</ele>
        <time>2022-07-23T18:57:21.000Z</time>
      </trkpt>
      <trkpt lat="45.82966" lon="4.71301">
        <ele>292.10459</ele>
        <time>2022-07-23T18:57:22.000Z</time>
      </trkpt>
      <trkpt lat="45.82969" lon="4.71302">
        <ele>292.41814</ele>
        <time>2022-07-23T18:57:23.000Z</time>
      </trkpt>
      <trkpt lat="45.82984" lon="4.71306">
        <ele>294.70452</ele>
        <time>2022-07-23T18:57:29.000Z</time>
      </trkpt>
      <trkpt lat="45.82987" lon="4.71307">
        <ele>295.05203</ele>
        <time>2022-07-23T18:57:31.000Z</time>
      </trkpt>
      <trkpt lat="45.82989" lon="4.71307">
        <ele>295.34528</ele>
        <time>2022-07-23T18:57:33.000Z</time>
      </trkpt>
      <trkpt lat="45.82991" lon="4.71306">
        <ele>295.53377</ele>
        <time>2022-07-23T18:57:35.000Z</time>
      </trkpt>
      <trkpt lat="45.82991" lon="4.71302">
        <ele>295.53859</ele>
        <time>2022-07-23T18:57:37.000Z</time>
      </trkpt>
      <trkpt lat="45.82988" lon="4.71299">
        <ele>295.24819</ele>
        <time>2022-07-23T18:57:39.000Z</time>
      </trkpt>
      <trkpt lat="45.82985" lon="4.71297">
        <ele>294.84228</ele>
        <time>2022-07-23T18:57:40.000Z</time>
      </trkpt>
      <trkpt lat="45.82981" lon="4.71294">
        <ele>294.34772</ele>
        <time>2022-07-23T18:57:41.000Z</time>
      </trkpt>
      <trkpt lat="45.82978" lon="4.71291">
        <ele>293.95923</ele>
        <time>2022-07-23T18:57:42.000Z</time>
      </trkpt>
      <trkpt lat="45.82976" lon="4.71287">
        <ele>293.70736</ele>
        <time>2022-07-23T18:57:43.000Z</time>
      </trkpt>
      <trkpt lat="45.82974" lon="4.71282">
        <ele>293.56928</ele>
        <time>2022-07-23T18:57:44.000Z</time>
      </trkpt>
      <trkpt lat="45.82973" lon="4.71275">
        <ele>293.62203</ele>
        <time>2022-07-23T18:57:45.000Z</time>
      </trkpt>
      <trkpt lat="45.82973" lon="4.71269">
        <ele>293.82869</ele>
        <time>2022-07-23T18:57:46.000Z</time>
      </trkpt>
      <trkpt lat="45.82973" lon="4.71263">
        <ele>294.15317</ele>
        <time>2022-07-23T18:57:47.000Z</time>
      </trkpt>
      <trkpt lat="45.82975" lon="4.71257">
        <ele>294.49043</ele>
        <time>2022-07-23T18:57:48.000Z</time>
      </trkpt>
      <trkpt lat="45.82976" lon="4.71252">
        <ele>294.90523</ele>
        <time>2022-07-23T18:57:49.000Z</time>
      </trkpt>
      <trkpt lat="45.82979" lon="4.71247">
        <ele>295.39907</ele>
        <time>2022-07-23T18:57:50.000Z</time>
      </trkpt>
      <trkpt lat="45.82982" lon="4.71243">
        <ele>295.8769</ele>
        <time>2022-07-23T18:57:51.000Z</time>
      </trkpt>
      <trkpt lat="45.82985" lon="4.71239">
        <ele>296.32405</ele>
        <time>2022-07-23T18:57:52.000Z</time>
      </trkpt>
      <trkpt lat="45.82988" lon="4.71236">
        <ele>296.72164</ele>
        <time>2022-07-23T18:57:53.000Z</time>
      </trkpt>
      <trkpt lat="45.8299" lon="4.71232">
        <ele>297.14111</ele>
        <time>2022-07-23T18:57:54.000Z</time>
      </trkpt>
      <trkpt lat="45.82992" lon="4.71229">
        <ele>297.54361</ele>
        <time>2022-07-23T18:57:55.000Z</time>
      </trkpt>
      <trkpt lat="45.82994" lon="4.71225">
        <ele>297.88609</ele>
        <time>2022-07-23T18:57:56.000Z</time>
      </trkpt>
      <trkpt lat="45.82995" lon="4.71222">
        <ele>298.22057</ele>
        <time>2022-07-23T18:57:57.000Z</time>
      </trkpt>
      <trkpt lat="45.82996" lon="4.71218">
        <ele>298.5171</ele>
        <time>2022-07-23T18:57:58.000Z</time>
      </trkpt>
      <trkpt lat="45.82996" lon="4.71213">
        <ele>298.88997</ele>
        <time>2022-07-23T18:57:59.000Z</time>
      </trkpt>
      <trkpt lat="45.82997" lon="4.71208">
        <ele>299.25128</ele>
        <time>2022-07-23T18:58:00.000Z</time>
      </trkpt>
      <trkpt lat="45.82997" lon="4.71203">
        <ele>299.5616</ele>
        <time>2022-07-23T18:58:01.000Z</time>
      </trkpt>
      <trkpt lat="45.82997" lon="4.71197">
        <ele>299.84834</ele>
        <time>2022-07-23T18:58:02.000Z</time>
      </trkpt>
      <trkpt lat="45.82997" lon="4.71192">
        <ele>300.13003</ele>
        <time>2022-07-23T18:58:03.000Z</time>
      </trkpt>
      <trkpt lat="45.82997" lon="4.71187">
        <ele>300.43401</ele>
        <time>2022-07-23T18:58:04.000Z</time>
      </trkpt>
      <trkpt lat="45.82998" lon="4.71181">
        <ele>300.77934</ele>
        <time>2022-07-23T18:58:05.000Z</time>
      </trkpt>
      <trkpt lat="45.82997" lon="4.71176">
        <ele>301.03367</ele>
        <time>2022-07-23T18:58:06.000Z</time>
      </trkpt>
      <trkpt lat="45.82997" lon="4.71171">
        <ele>301.24863</ele>
        <time>2022-07-23T18:58:07.000Z</time>
      </trkpt>
      <trkpt lat="45.82997" lon="4.71165">
        <ele>301.48766</ele>
        <time>2022-07-23T18:58:08.000Z</time>
      </trkpt>
      <trkpt lat="45.82997" lon="4.71159">
        <ele>301.76151</ele>
        <time>2022-07-23T18:58:09.000Z</time>
      </trkpt>
      <trkpt lat="45.82997" lon="4.71153">
        <ele>302.06092</ele>
        <time>2022-07-23T18:58:10.000Z</time>
      </trkpt>
      <trkpt lat="45.82997" lon="4.71148">
        <ele>302.32565</ele>
        <time>2022-07-23T18:58:11.000Z</time>
      </trkpt>
      <trkpt lat="45.82997" lon="4.71142">
        <ele>302.58018</ele>
        <time>2022-07-23T18:58:12.000Z</time>
      </trkpt>
      <trkpt lat="45.82998" lon="4.71137">
        <ele>302.84879</ele>
        <time>2022-07-23T18:58:13.000Z</time>
      </trkpt>
      <trkpt lat="45.82998" lon="4.71131">
        <ele>303.1275</ele>
        <time>2022-07-23T18:58:14.000Z</time>
      </trkpt>
      <trkpt lat="45.82999" lon="4.71125">
        <ele>303.40771</ele>
        <time>2022-07-23T18:58:15.000Z</time>
      </trkpt>
      <trkpt lat="45.82999" lon="4.7112">
        <ele>303.66328</ele>
        <time>2022-07-23T18:58:16.000Z</time>
      </trkpt>
      <trkpt lat="45.83" lon="4.71115">
        <ele>303.88861</ele>
        <time>2022-07-23T18:58:17.000Z</time>
      </trkpt>
      <trkpt lat="45.83" lon="4.7111">
        <ele>304.09209</ele>
        <time>2022-07-23T18:58:18.000Z</time>
      </trkpt>
      <trkpt lat="45.83001" lon="4.71106">
        <ele>304.30319</ele>
        <time>2022-07-23T18:58:19.000Z</time>
      </trkpt>
      <trkpt lat="45.83001" lon="4.71102">
        <ele>304.49006</ele>
        <time>2022-07-23T18:58:20.000Z</time>
      </trkpt>
      <trkpt lat="45.83002" lon="4.71098">
        <ele>304.6697</ele>
        <time>2022-07-23T18:58:21.000Z</time>
      </trkpt>
      <trkpt lat="45.83004" lon="4.71094">
        <ele>304.87353</ele>
        <time>2022-07-23T18:58:22.000Z</time>
      </trkpt>
      <trkpt lat="45.83007" lon="4.71092">
        <ele>305.04262</ele>
        <time>2022-07-23T18:58:23.000Z</time>
      </trkpt>
      <trkpt lat="45.8301" lon="4.7109">
        <ele>305.18074</ele>
        <time>2022-07-23T18:58:24.000Z</time>
      </trkpt>
      <trkpt lat="45.83014" lon="4.7109">
        <ele>305.28769</ele>
        <time>2022-07-23T18:58:25.000Z</time>
      </trkpt>
      <trkpt lat="45.83018" lon="4.7109">
        <ele>305.36835</ele>
        <time>2022-07-23T18:58:26.000Z</time>
      </trkpt>
      <trkpt lat="45.83022" lon="4.71091">
        <ele>305.41904</ele>
        <time>2022-07-23T18:58:27.000Z</time>
      </trkpt>
      <trkpt lat="45.83026" lon="4.71092">
        <ele>305.4669</ele>
        <time>2022-07-23T18:58:28.000Z</time>
      </trkpt>
      <trkpt lat="45.8303" lon="4.71093">
        <ele>305.51447</ele>
        <time>2022-07-23T18:58:29.000Z</time>
      </trkpt>
      <trkpt lat="45.83034" lon="4.71094">
        <ele>305.56768</ele>
        <time>2022-07-23T18:58:30.000Z</time>
      </trkpt>
      <trkpt lat="45.83037" lon="4.71094">
        <ele>305.61507</ele>
        <time>2022-07-23T18:58:31.000Z</time>
      </trkpt>
      <trkpt lat="45.83039" lon="4.71094">
        <ele>305.65417</ele>
        <time>2022-07-23T18:58:32.000Z</time>
      </trkpt>
      <trkpt lat="45.83042" lon="4.71091">
        <ele>305.78312</ele>
        <time>2022-07-23T18:58:34.000Z</time>
      </trkpt>
      <trkpt lat="45.83042" lon="4.71087">
        <ele>305.89342</ele>
        <time>2022-07-23T18:58:35.000Z</time>
      </trkpt>
      <trkpt lat="45.83042" lon="4.71083">
        <ele>306.00927</ele>
        <time>2022-07-23T18:58:36.000Z</time>
      </trkpt>
      <trkpt lat="45.83042" lon="4.71079">
        <ele>306.14772</ele>
        <time>2022-07-23T18:58:37.000Z</time>
      </trkpt>
      <trkpt lat="45.83042" lon="4.71074">
        <ele>306.30676</ele>
        <time>2022-07-23T18:58:38.000Z</time>
      </trkpt>
      <trkpt lat="45.83043" lon="4.71069">
        <ele>306.48898</ele>
        <time>2022-07-23T18:58:39.000Z</time>
      </trkpt>
      <trkpt lat="45.83044" lon="4.71064">
        <ele>306.70172</ele>
        <time>2022-07-23T18:58:40.000Z</time>
      </trkpt>
      <trkpt lat="45.83045" lon="4.71059">
        <ele>306.91339</ele>
        <time>2022-07-23T18:58:41.000Z</time>
      </trkpt>
      <trkpt lat="45.83047" lon="4.71055">
        <ele>307.14555</ele>
        <time>2022-07-23T18:58:42.000Z</time>
      </trkpt>
      <trkpt lat="45.83051" lon="4.7105">
        <ele>307.37484</ele>
        <time>2022-07-23T18:58:43.000Z</time>
      </trkpt>
      <trkpt lat="45.83054" lon="4.71046">
        <ele>307.57399</ele>
        <time>2022-07-23T18:58:44.000Z</time>
      </trkpt>
      <trkpt lat="45.83058" lon="4.71042">
        <ele>307.74154</ele>
        <time>2022-07-23T18:58:45.000Z</time>
      </trkpt>
      <trkpt lat="45.83063" lon="4.71039">
        <ele>307.84584</ele>
        <time>2022-07-23T18:58:46.000Z</time>
      </trkpt>
      <trkpt lat="45.83068" lon="4.71037">
        <ele>307.90434</ele>
        <time>2022-07-23T18:58:47.000Z</time>
      </trkpt>
      <trkpt lat="45.83072" lon="4.71035">
        <ele>307.93987</ele>
        <time>2022-07-23T18:58:48.000Z</time>
      </trkpt>
      <trkpt lat="45.83077" lon="4.71033">
        <ele>307.97585</ele>
        <time>2022-07-23T18:58:49.000Z</time>
      </trkpt>
      <trkpt lat="45.83081" lon="4.71031">
        <ele>308.01901</ele>
        <time>2022-07-23T18:58:50.000Z</time>
      </trkpt>
      <trkpt lat="45.83087" lon="4.71031">
        <ele>308.04836</ele>
        <time>2022-07-23T18:58:51.000Z</time>
      </trkpt>
      <trkpt lat="45.83091" lon="4.71031">
        <ele>308.10198</ele>
        <time>2022-07-23T18:58:52.000Z</time>
      </trkpt>
      <trkpt lat="45.83095" lon="4.71031">
        <ele>308.17048</ele>
        <time>2022-07-23T18:58:53.000Z</time>
      </trkpt>
      <trkpt lat="45.83099" lon="4.71031">
        <ele>308.22116</ele>
        <time>2022-07-23T18:58:54.000Z</time>
      </trkpt>
      <trkpt lat="45.83103" lon="4.71029">
        <ele>308.29653</ele>
        <time>2022-07-23T18:58:55.000Z</time>
      </trkpt>
      <trkpt lat="45.83107" lon="4.71028">
        <ele>308.3484</ele>
        <time>2022-07-23T18:58:56.000Z</time>
      </trkpt>
      <trkpt lat="45.83111" lon="4.71027">
        <ele>308.40982</ele>
        <time>2022-07-23T18:58:57.000Z</time>
      </trkpt>
      <trkpt lat="45.83114" lon="4.71025">
        <ele>308.45276</ele>
        <time>2022-07-23T18:58:58.000Z</time>
      </trkpt>
      <trkpt lat="45.83117" lon="4.71025">
        <ele>308.43364</ele>
        <time>2022-07-23T18:58:59.000Z</time>
      </trkpt>
      <trkpt lat="45.83119" lon="4.71024">
        <ele>308.45061</ele>
        <time>2022-07-23T18:59:00.000Z</time>
      </trkpt>
      <trkpt lat="45.83121" lon="4.71024">
        <ele>308.44638</ele>
        <time>2022-07-23T18:59:01.000Z</time>
      </trkpt>
      <trkpt lat="45.83123" lon="4.71024">
        <ele>308.43186</ele>
        <time>2022-07-23T18:59:02.000Z</time>
      </trkpt>
      <trkpt lat="45.83125" lon="4.71022">
        <ele>308.47243</ele>
        <time>2022-07-23T18:59:04.000Z</time>
      </trkpt>
      <trkpt lat="45.83125" lon="4.71017">
        <ele>308.62014</ele>
        <time>2022-07-23T18:59:06.000Z</time>
      </trkpt>
      <trkpt lat="45.83122" lon="4.71016">
        <ele>308.69257</ele>
        <time>2022-07-23T18:59:08.000Z</time>
      </trkpt>
      <trkpt lat="45.8312" lon="4.71018">
        <ele>308.67793</ele>
        <time>2022-07-23T18:59:09.000Z</time>
      </trkpt>
      <trkpt lat="45.83118" lon="4.71019">
        <ele>308.63887</ele>
        <time>2022-07-23T18:59:10.000Z</time>
      </trkpt>
      <trkpt lat="45.83117" lon="4.71021">
        <ele>308.58078</ele>
        <time>2022-07-23T18:59:11.000Z</time>
      </trkpt>
      <trkpt lat="45.83115" lon="4.71024">
        <ele>308.49864</ele>
        <time>2022-07-23T18:59:12.000Z</time>
      </trkpt>
      <trkpt lat="45.83113" lon="4.71026">
        <ele>308.42084</ele>
        <time>2022-07-23T18:59:13.000Z</time>
      </trkpt>
      <trkpt lat="45.83109" lon="4.71029">
        <ele>308.34066</ele>
        <time>2022-07-23T18:59:14.000Z</time>
      </trkpt>
      <trkpt lat="45.83098" lon="4.71029">
        <ele>308.26555</ele>
        <time>2022-07-23T18:59:15.000Z</time>
      </trkpt>
      <trkpt lat="45.83092" lon="4.71031">
        <ele>308.12318</ele>
        <time>2022-07-23T18:59:16.000Z</time>
      </trkpt>
      <trkpt lat="45.83086" lon="4.71033">
        <ele>308.00066</ele>
        <time>2022-07-23T18:59:17.000Z</time>
      </trkpt>
      <trkpt lat="45.83081" lon="4.71032">
        <ele>307.98798</ele>
        <time>2022-07-23T18:59:18.000Z</time>
      </trkpt>
      <trkpt lat="45.83074" lon="4.71034">
        <ele>307.95723</ele>
        <time>2022-07-23T18:59:19.000Z</time>
      </trkpt>
      <trkpt lat="45.8307" lon="4.71035">
        <ele>307.94232</ele>
        <time>2022-07-23T18:59:20.000Z</time>
      </trkpt>
      <trkpt lat="45.83065" lon="4.71039">
        <ele>307.85896</ele>
        <time>2022-07-23T18:59:21.000Z</time>
      </trkpt>
      <trkpt lat="45.83061" lon="4.71041">
        <ele>307.77245</ele>
        <time>2022-07-23T18:59:22.000Z</time>
      </trkpt>
      <trkpt lat="45.83057" lon="4.71045">
        <ele>307.61467</ele>
        <time>2022-07-23T18:59:23.000Z</time>
      </trkpt>
      <trkpt lat="45.83053" lon="4.71052">
        <ele>307.33832</ele>
        <time>2022-07-23T18:59:24.000Z</time>
      </trkpt>
      <trkpt lat="45.83048" lon="4.71058">
        <ele>307.03444</ele>
        <time>2022-07-23T18:59:25.000Z</time>
      </trkpt>
      <trkpt lat="45.83047" lon="4.71064">
        <ele>306.75925</ele>
        <time>2022-07-23T18:59:26.000Z</time>
      </trkpt>
      <trkpt lat="45.83045" lon="4.71068">
        <ele>306.55771</ele>
        <time>2022-07-23T18:59:27.000Z</time>
      </trkpt>
      <trkpt lat="45.83044" lon="4.71073">
        <ele>306.36116</ele>
        <time>2022-07-23T18:59:28.000Z</time>
      </trkpt>
      <trkpt lat="45.83043" lon="4.71077">
        <ele>306.23002</ele>
        <time>2022-07-23T18:59:29.000Z</time>
      </trkpt>
      <trkpt lat="45.83042" lon="4.71082">
        <ele>306.0269</ele>
        <time>2022-07-23T18:59:31.000Z</time>
      </trkpt>
      <trkpt lat="45.83043" lon="4.71089">
        <ele>305.85161</ele>
        <time>2022-07-23T18:59:32.000Z</time>
      </trkpt>
      <trkpt lat="45.83045" lon="4.71099">
        <ele>305.63716</ele>
        <time>2022-07-23T18:59:33.000Z</time>
      </trkpt>
      <trkpt lat="45.83047" lon="4.71107">
        <ele>305.48422</ele>
        <time>2022-07-23T18:59:34.000Z</time>
      </trkpt>
      <trkpt lat="45.8305" lon="4.71113">
        <ele>305.34167</ele>
        <time>2022-07-23T18:59:35.000Z</time>
      </trkpt>
      <trkpt lat="45.83054" lon="4.7112">
        <ele>305.15761</ele>
        <time>2022-07-23T18:59:36.000Z</time>
      </trkpt>
      <trkpt lat="45.83059" lon="4.71127">
        <ele>304.95133</ele>
        <time>2022-07-23T18:59:37.000Z</time>
      </trkpt>
      <trkpt lat="45.83061" lon="4.71132">
        <ele>304.77035</ele>
        <time>2022-07-23T18:59:38.000Z</time>
      </trkpt>
      <trkpt lat="45.83064" lon="4.71137">
        <ele>304.60193</ele>
        <time>2022-07-23T18:59:39.000Z</time>
      </trkpt>
      <trkpt lat="45.83069" lon="4.71144">
        <ele>304.36437</ele>
        <time>2022-07-23T18:59:40.000Z</time>
      </trkpt>
      <trkpt lat="45.83073" lon="4.71151">
        <ele>304.20973</ele>
        <time>2022-07-23T18:59:41.000Z</time>
      </trkpt>
      <trkpt lat="45.83078" lon="4.71159">
        <ele>304.10757</ele>
        <time>2022-07-23T18:59:42.000Z</time>
      </trkpt>
      <trkpt lat="45.83081" lon="4.71164">
        <ele>304.0549</ele>
        <time>2022-07-23T18:59:43.000Z</time>
      </trkpt>
      <trkpt lat="45.83084" lon="4.7117">
        <ele>303.99577</ele>
        <time>2022-07-23T18:59:44.000Z</time>
      </trkpt>
      <trkpt lat="45.83087" lon="4.71175">
        <ele>303.90079</ele>
        <time>2022-07-23T18:59:45.000Z</time>
      </trkpt>
      <trkpt lat="45.83091" lon="4.71175">
        <ele>303.93034</ele>
        <time>2022-07-23T18:59:46.000Z</time>
      </trkpt>
      <trkpt lat="45.83094" lon="4.71177">
        <ele>303.92247</ele>
        <time>2022-07-23T18:59:47.000Z</time>
      </trkpt>
      <trkpt lat="45.83098" lon="4.71177">
        <ele>303.95371</ele>
        <time>2022-07-23T18:59:48.000Z</time>
      </trkpt>
      <trkpt lat="45.83102" lon="4.71176">
        <ele>304.00041</ele>
        <time>2022-07-23T18:59:49.000Z</time>
      </trkpt>
      <trkpt lat="45.83107" lon="4.71174">
        <ele>304.06547</ele>
        <time>2022-07-23T18:59:50.000Z</time>
      </trkpt>
      <trkpt lat="45.83109" lon="4.71172">
        <ele>304.12417</ele>
        <time>2022-07-23T18:59:51.000Z</time>
      </trkpt>
      <trkpt lat="45.83113" lon="4.7117">
        <ele>304.179</ele>
        <time>2022-07-23T18:59:52.000Z</time>
      </trkpt>
      <trkpt lat="45.83117" lon="4.71168">
        <ele>304.21005</ele>
        <time>2022-07-23T18:59:53.000Z</time>
      </trkpt>
      <trkpt lat="45.83121" lon="4.71167">
        <ele>304.22989</ele>
        <time>2022-07-23T18:59:54.000Z</time>
      </trkpt>
      <trkpt lat="45.83123" lon="4.71167">
        <ele>304.23311</ele>
        <time>2022-07-23T18:59:55.000Z</time>
      </trkpt>
      <trkpt lat="45.83126" lon="4.71167">
        <ele>304.22497</ele>
        <time>2022-07-23T18:59:57.000Z</time>
      </trkpt>
      <trkpt lat="45.83128" lon="4.71168">
        <ele>304.20181</ele>
        <time>2022-07-23T18:59:58.000Z</time>
      </trkpt>
      <trkpt lat="45.8313" lon="4.71168">
        <ele>304.18711</ele>
        <time>2022-07-23T19:00:00.000Z</time>
      </trkpt>
      <trkpt lat="45.83132" lon="4.71163">
        <ele>304.25086</ele>
        <time>2022-07-23T19:00:02.000Z</time>
      </trkpt>
      <trkpt lat="45.8313" lon="4.7116">
        <ele>304.3119</ele>
        <time>2022-07-23T19:00:04.000Z</time>
      </trkpt>
      <trkpt lat="45.83127" lon="4.7116">
        <ele>304.32863</ele>
        <time>2022-07-23T19:00:05.000Z</time>
      </trkpt>
      <trkpt lat="45.83124" lon="4.71162">
        <ele>304.32162</ele>
        <time>2022-07-23T19:00:06.000Z</time>
      </trkpt>
      <trkpt lat="45.83121" lon="4.71164">
        <ele>304.29621</ele>
        <time>2022-07-23T19:00:07.000Z</time>
      </trkpt>
      <trkpt lat="45.83117" lon="4.71166">
        <ele>304.25141</ele>
        <time>2022-07-23T19:00:08.000Z</time>
      </trkpt>
      <trkpt lat="45.83113" lon="4.71169">
        <ele>304.18899</ele>
        <time>2022-07-23T19:00:09.000Z</time>
      </trkpt>
      <trkpt lat="45.83109" lon="4.71172">
        <ele>304.11818</ele>
        <time>2022-07-23T19:00:10.000Z</time>
      </trkpt>
      <trkpt lat="45.83104" lon="4.71175">
        <ele>304.04209</ele>
        <time>2022-07-23T19:00:11.000Z</time>
      </trkpt>
      <trkpt lat="45.831" lon="4.71177">
        <ele>303.97188</ele>
        <time>2022-07-23T19:00:12.000Z</time>
      </trkpt>
      <trkpt lat="45.83097" lon="4.71178">
        <ele>303.89587</ele>
        <time>2022-07-23T19:00:13.000Z</time>
      </trkpt>
      <trkpt lat="45.83094" lon="4.71181">
        <ele>303.79306</ele>
        <time>2022-07-23T19:00:14.000Z</time>
      </trkpt>
      <trkpt lat="45.83091" lon="4.71183">
        <ele>303.66154</ele>
        <time>2022-07-23T19:00:15.000Z</time>
      </trkpt>
      <trkpt lat="45.83087" lon="4.71187">
        <ele>303.46568</ele>
        <time>2022-07-23T19:00:16.000Z</time>
      </trkpt>
      <trkpt lat="45.83084" lon="4.71197">
        <ele>302.96043</ele>
        <time>2022-07-23T19:00:17.000Z</time>
      </trkpt>
      <trkpt lat="45.8308" lon="4.71203">
        <ele>302.64219</ele>
        <time>2022-07-23T19:00:18.000Z</time>
      </trkpt>
      <trkpt lat="45.83079" lon="4.71207">
        <ele>302.41819</ele>
        <time>2022-07-23T19:00:19.000Z</time>
      </trkpt>
      <trkpt lat="45.83078" lon="4.71211">
        <ele>302.22986</ele>
        <time>2022-07-23T19:00:20.000Z</time>
      </trkpt>
      <trkpt lat="45.83076" lon="4.71218">
        <ele>301.97095</ele>
        <time>2022-07-23T19:00:21.000Z</time>
      </trkpt>
      <trkpt lat="45.83073" lon="4.71223">
        <ele>301.75489</ele>
        <time>2022-07-23T19:00:22.000Z</time>
      </trkpt>
      <trkpt lat="45.8307" lon="4.71229">
        <ele>301.53376</ele>
        <time>2022-07-23T19:00:23.000Z</time>
      </trkpt>
      <trkpt lat="45.83067" lon="4.71245">
        <ele>300.82978</ele>
        <time>2022-07-23T19:00:24.000Z</time>
      </trkpt>
      <trkpt lat="45.83067" lon="4.71253">
        <ele>300.46038</ele>
        <time>2022-07-23T19:00:25.000Z</time>
      </trkpt>
      <trkpt lat="45.83066" lon="4.7126">
        <ele>300.07699</ele>
        <time>2022-07-23T19:00:26.000Z</time>
      </trkpt>
      <trkpt lat="45.83065" lon="4.71269">
        <ele>299.65147</ele>
        <time>2022-07-23T19:00:27.000Z</time>
      </trkpt>
      <trkpt lat="45.83065" lon="4.71275">
        <ele>299.3878</ele>
        <time>2022-07-23T19:00:28.000Z</time>
      </trkpt>
      <trkpt lat="45.83065" lon="4.71279">
        <ele>299.28181</ele>
        <time>2022-07-23T19:00:29.000Z</time>
      </trkpt>
      <trkpt lat="45.83064" lon="4.71284">
        <ele>299.1253</ele>
        <time>2022-07-23T19:00:30.000Z</time>
      </trkpt>
      <trkpt lat="45.83064" lon="4.71289">
        <ele>298.99187</ele>
        <time>2022-07-23T19:00:31.000Z</time>
      </trkpt>
      <trkpt lat="45.83064" lon="4.71293">
        <ele>298.89274</ele>
        <time>2022-07-23T19:00:32.000Z</time>
      </trkpt>
      <trkpt lat="45.83064" lon="4.71296">
        <ele>298.7876</ele>
        <time>2022-07-23T19:00:33.000Z</time>
      </trkpt>
      <trkpt lat="45.83065" lon="4.71299">
        <ele>298.68709</ele>
        <time>2022-07-23T19:00:34.000Z</time>
      </trkpt>
      <trkpt lat="45.83068" lon="4.71307">
        <ele>298.37221</ele>
        <time>2022-07-23T19:00:36.000Z</time>
      </trkpt>
      <trkpt lat="45.83069" lon="4.71312">
        <ele>298.16747</ele>
        <time>2022-07-23T19:00:37.000Z</time>
      </trkpt>
      <trkpt lat="45.83072" lon="4.71315">
        <ele>298.01915</ele>
        <time>2022-07-23T19:00:38.000Z</time>
      </trkpt>
      <trkpt lat="45.83076" lon="4.71317">
        <ele>297.90657</ele>
        <time>2022-07-23T19:00:39.000Z</time>
      </trkpt>
      <trkpt lat="45.83081" lon="4.71316">
        <ele>297.96112</ele>
        <time>2022-07-23T19:00:40.000Z</time>
      </trkpt>
      <trkpt lat="45.83086" lon="4.71317">
        <ele>298.00868</ele>
        <time>2022-07-23T19:00:41.000Z</time>
      </trkpt>
      <trkpt lat="45.83091" lon="4.71317">
        <ele>298.09042</ele>
        <time>2022-07-23T19:00:42.000Z</time>
      </trkpt>
      <trkpt lat="45.83097" lon="4.71318">
        <ele>298.14327</ele>
        <time>2022-07-23T19:00:43.000Z</time>
      </trkpt>
      <trkpt lat="45.83101" lon="4.71317">
        <ele>298.18153</ele>
        <time>2022-07-23T19:00:44.000Z</time>
      </trkpt>
      <trkpt lat="45.83106" lon="4.71318">
        <ele>298.05492</ele>
        <time>2022-07-23T19:00:45.000Z</time>
      </trkpt>
      <trkpt lat="45.83113" lon="4.71319">
        <ele>297.85788</ele>
        <time>2022-07-23T19:00:46.000Z</time>
      </trkpt>
      <trkpt lat="45.83118" lon="4.71319">
        <ele>297.7167</ele>
        <time>2022-07-23T19:00:47.000Z</time>
      </trkpt>
      <trkpt lat="45.83124" lon="4.7132">
        <ele>297.64055</ele>
        <time>2022-07-23T19:00:48.000Z</time>
      </trkpt>
      <trkpt lat="45.8313" lon="4.71322">
        <ele>297.57524</ele>
        <time>2022-07-23T19:00:49.000Z</time>
      </trkpt>
      <trkpt lat="45.83135" lon="4.71325">
        <ele>297.5493</ele>
        <time>2022-07-23T19:00:50.000Z</time>
      </trkpt>
      <trkpt lat="45.83141" lon="4.71327">
        <ele>297.57779</ele>
        <time>2022-07-23T19:00:51.000Z</time>
      </trkpt>
      <trkpt lat="45.83146" lon="4.71332">
        <ele>297.35382</ele>
        <time>2022-07-23T19:00:52.000Z</time>
      </trkpt>
      <trkpt lat="45.83152" lon="4.71339">
        <ele>297.11306</ele>
        <time>2022-07-23T19:00:53.000Z</time>
      </trkpt>
      <trkpt lat="45.83156" lon="4.71347">
        <ele>296.78981</ele>
        <time>2022-07-23T19:00:54.000Z</time>
      </trkpt>
      <trkpt lat="45.83161" lon="4.71355">
        <ele>296.52145</ele>
        <time>2022-07-23T19:00:55.000Z</time>
      </trkpt>
      <trkpt lat="45.83164" lon="4.71361">
        <ele>296.28094</ele>
        <time>2022-07-23T19:00:56.000Z</time>
      </trkpt>
      <trkpt lat="45.83169" lon="4.71366">
        <ele>296.05697</ele>
        <time>2022-07-23T19:00:57.000Z</time>
      </trkpt>
      <trkpt lat="45.83174" lon="4.71372">
        <ele>295.86613</ele>
        <time>2022-07-23T19:00:58.000Z</time>
      </trkpt>
      <trkpt lat="45.8318" lon="4.7138">
        <ele>295.66265</ele>
        <time>2022-07-23T19:00:59.000Z</time>
      </trkpt>
      <trkpt lat="45.83186" lon="4.71384">
        <ele>295.56987</ele>
        <time>2022-07-23T19:01:00.000Z</time>
      </trkpt>
      <trkpt lat="45.83192" lon="4.71384">
        <ele>295.48729</ele>
        <time>2022-07-23T19:01:01.000Z</time>
      </trkpt>
      <trkpt lat="45.83197" lon="4.71384">
        <ele>295.33001</ele>
        <time>2022-07-23T19:01:02.000Z</time>
      </trkpt>
      <trkpt lat="45.83203" lon="4.71382">
        <ele>295.12361</ele>
        <time>2022-07-23T19:01:03.000Z</time>
      </trkpt>
      <trkpt lat="45.8321" lon="4.71382">
        <ele>294.76509</ele>
        <time>2022-07-23T19:01:04.000Z</time>
      </trkpt>
      <trkpt lat="45.83216" lon="4.71381">
        <ele>294.54671</ele>
        <time>2022-07-23T19:01:05.000Z</time>
      </trkpt>
      <trkpt lat="45.83221" lon="4.71382">
        <ele>294.35733</ele>
        <time>2022-07-23T19:01:06.000Z</time>
      </trkpt>
      <trkpt lat="45.83227" lon="4.71382">
        <ele>294.14523</ele>
        <time>2022-07-23T19:01:07.000Z</time>
      </trkpt>
      <trkpt lat="45.83232" lon="4.71383">
        <ele>293.90345</ele>
        <time>2022-07-23T19:01:08.000Z</time>
      </trkpt>
      <trkpt lat="45.83239" lon="4.71383">
        <ele>293.51631</ele>
        <time>2022-07-23T19:01:09.000Z</time>
      </trkpt>
      <trkpt lat="45.83244" lon="4.71383">
        <ele>293.16317</ele>
        <time>2022-07-23T19:01:10.000Z</time>
      </trkpt>
      <trkpt lat="45.83249" lon="4.71384">
        <ele>292.78309</ele>
        <time>2022-07-23T19:01:11.000Z</time>
      </trkpt>
      <trkpt lat="45.83252" lon="4.71384">
        <ele>292.57522</ele>
        <time>2022-07-23T19:01:12.000Z</time>
      </trkpt>
      <trkpt lat="45.83256" lon="4.71384">
        <ele>292.34437</ele>
        <time>2022-07-23T19:01:13.000Z</time>
      </trkpt>
      <trkpt lat="45.83261" lon="4.71385">
        <ele>292.15816</ele>
        <time>2022-07-23T19:01:15.000Z</time>
      </trkpt>
      <trkpt lat="45.83262" lon="4.71386">
        <ele>292.07503</ele>
        <time>2022-07-23T19:01:17.000Z</time>
      </trkpt>
      <trkpt lat="45.83264" lon="4.71387">
        <ele>292.01438</ele>
        <time>2022-07-23T19:01:18.000Z</time>
      </trkpt>
      <trkpt lat="45.83267" lon="4.71388">
        <ele>291.94759</ele>
        <time>2022-07-23T19:01:19.000Z</time>
      </trkpt>
      <trkpt lat="45.83266" lon="4.71394">
        <ele>291.87293</ele>
        <time>2022-07-23T19:01:20.000Z</time>
      </trkpt>
      <trkpt lat="45.83266" lon="4.714">
        <ele>291.8143</ele>
        <time>2022-07-23T19:01:21.000Z</time>
      </trkpt>
      <trkpt lat="45.83264" lon="4.71406">
        <ele>291.76629</ele>
        <time>2022-07-23T19:01:22.000Z</time>
      </trkpt>
      <trkpt lat="45.83264" lon="4.71414">
        <ele>291.7177</ele>
        <time>2022-07-23T19:01:23.000Z</time>
      </trkpt>
      <trkpt lat="45.83263" lon="4.71421">
        <ele>291.73301</ele>
        <time>2022-07-23T19:01:24.000Z</time>
      </trkpt>
      <trkpt lat="45.83262" lon="4.71429">
        <ele>291.77237</ele>
        <time>2022-07-23T19:01:25.000Z</time>
      </trkpt>
      <trkpt lat="45.8326" lon="4.71435">
        <ele>291.80288</ele>
        <time>2022-07-23T19:01:26.000Z</time>
      </trkpt>
      <trkpt lat="45.83259" lon="4.71443">
        <ele>291.81673</ele>
        <time>2022-07-23T19:01:27.000Z</time>
      </trkpt>
      <trkpt lat="45.83259" lon="4.71451">
        <ele>291.7941</ele>
        <time>2022-07-23T19:01:28.000Z</time>
      </trkpt>
      <trkpt lat="45.83258" lon="4.71458">
        <ele>291.76958</ele>
        <time>2022-07-23T19:01:29.000Z</time>
      </trkpt>
      <trkpt lat="45.83258" lon="4.71468">
        <ele>291.73731</ele>
        <time>2022-07-23T19:01:30.000Z</time>
      </trkpt>
      <trkpt lat="45.83257" lon="4.71475">
        <ele>291.72352</ele>
        <time>2022-07-23T19:01:31.000Z</time>
      </trkpt>
      <trkpt lat="45.83257" lon="4.71482">
        <ele>291.7077</ele>
        <time>2022-07-23T19:01:32.000Z</time>
      </trkpt>
      <trkpt lat="45.83256" lon="4.71489">
        <ele>291.73632</ele>
        <time>2022-07-23T19:01:33.000Z</time>
      </trkpt>
      <trkpt lat="45.83257" lon="4.71496">
        <ele>291.65851</ele>
        <time>2022-07-23T19:01:34.000Z</time>
      </trkpt>
      <trkpt lat="45.83258" lon="4.71503">
        <ele>291.524</ele>
        <time>2022-07-23T19:01:35.000Z</time>
      </trkpt>
      <trkpt lat="45.83258" lon="4.71516">
        <ele>291.1793</ele>
        <time>2022-07-23T19:01:36.000Z</time>
      </trkpt>
      <trkpt lat="45.83259" lon="4.71523">
        <ele>290.94839</ele>
        <time>2022-07-23T19:01:37.000Z</time>
      </trkpt>
      <trkpt lat="45.83261" lon="4.7153">
        <ele>290.72463</ele>
        <time>2022-07-23T19:01:38.000Z</time>
      </trkpt>
      <trkpt lat="45.83262" lon="4.71537">
        <ele>290.48487</ele>
        <time>2022-07-23T19:01:39.000Z</time>
      </trkpt>
      <trkpt lat="45.83263" lon="4.71543">
        <ele>290.30923</ele>
        <time>2022-07-23T19:01:40.000Z</time>
      </trkpt>
      <trkpt lat="45.83262" lon="4.71547">
        <ele>290.1337</ele>
        <time>2022-07-23T19:01:41.000Z</time>
      </trkpt>
      <trkpt lat="45.83258" lon="4.71553">
        <ele>289.94616</ele>
        <time>2022-07-23T19:01:42.000Z</time>
      </trkpt>
      <trkpt lat="45.83255" lon="4.71556">
        <ele>289.87729</ele>
        <time>2022-07-23T19:01:43.000Z</time>
      </trkpt>
      <trkpt lat="45.83252" lon="4.71561">
        <ele>289.73613</ele>
        <time>2022-07-23T19:01:44.000Z</time>
      </trkpt>
      <trkpt lat="45.83247" lon="4.71559">
        <ele>289.97747</ele>
        <time>2022-07-23T19:01:45.000Z</time>
      </trkpt>
      <trkpt lat="45.83242" lon="4.71559">
        <ele>290.11327</ele>
        <time>2022-07-23T19:01:46.000Z</time>
      </trkpt>
      <trkpt lat="45.83236" lon="4.71563">
        <ele>290.03229</ele>
        <time>2022-07-23T19:01:47.000Z</time>
      </trkpt>
      <trkpt lat="45.83232" lon="4.71564">
        <ele>289.99125</ele>
        <time>2022-07-23T19:01:48.000Z</time>
      </trkpt>
      <trkpt lat="45.83227" lon="4.71568">
        <ele>289.69324</ele>
        <time>2022-07-23T19:01:49.000Z</time>
      </trkpt>
      <trkpt lat="45.83225" lon="4.71568">
        <ele>289.65776</ele>
        <time>2022-07-23T19:01:50.000Z</time>
      </trkpt>
      <trkpt lat="45.83216" lon="4.71565">
        <ele>289.58483</ele>
        <time>2022-07-23T19:01:51.000Z</time>
      </trkpt>
      <trkpt lat="45.83207" lon="4.71562">
        <ele>289.38306</ele>
        <time>2022-07-23T19:01:52.000Z</time>
      </trkpt>
      <trkpt lat="45.83201" lon="4.71558">
        <ele>289.26785</ele>
        <time>2022-07-23T19:01:53.000Z</time>
      </trkpt>
      <trkpt lat="45.83194" lon="4.71555">
        <ele>288.92944</ele>
        <time>2022-07-23T19:01:54.000Z</time>
      </trkpt>
      <trkpt lat="45.83188" lon="4.71553">
        <ele>288.52026</ele>
        <time>2022-07-23T19:01:55.000Z</time>
      </trkpt>
      <trkpt lat="45.8318" lon="4.7155">
        <ele>287.83703</ele>
        <time>2022-07-23T19:01:56.000Z</time>
      </trkpt>
      <trkpt lat="45.83175" lon="4.71547">
        <ele>287.41842</ele>
        <time>2022-07-23T19:01:57.000Z</time>
      </trkpt>
      <trkpt lat="45.83168" lon="4.71545">
        <ele>286.56876</ele>
        <time>2022-07-23T19:01:58.000Z</time>
      </trkpt>
      <trkpt lat="45.83165" lon="4.71545">
        <ele>286.18106</ele>
        <time>2022-07-23T19:01:59.000Z</time>
      </trkpt>
      <trkpt lat="45.83159" lon="4.71545">
        <ele>285.36771</ele>
        <time>2022-07-23T19:02:00.000Z</time>
      </trkpt>
      <trkpt lat="45.8315" lon="4.71542">
        <ele>284.10105</ele>
        <time>2022-07-23T19:02:01.000Z</time>
      </trkpt>
      <trkpt lat="45.83145" lon="4.71537">
        <ele>283.66942</ele>
        <time>2022-07-23T19:02:02.000Z</time>
      </trkpt>
      <trkpt lat="45.83139" lon="4.71534">
        <ele>283.18067</ele>
        <time>2022-07-23T19:02:03.000Z</time>
      </trkpt>
      <trkpt lat="45.83132" lon="4.7153">
        <ele>282.72503</ele>
        <time>2022-07-23T19:02:04.000Z</time>
      </trkpt>
      <trkpt lat="45.83125" lon="4.71529">
        <ele>282.08914</ele>
        <time>2022-07-23T19:02:05.000Z</time>
      </trkpt>
      <trkpt lat="45.83118" lon="4.71526">
        <ele>281.44464</ele>
        <time>2022-07-23T19:02:06.000Z</time>
      </trkpt>
      <trkpt lat="45.83111" lon="4.71525">
        <ele>280.52575</ele>
        <time>2022-07-23T19:02:07.000Z</time>
      </trkpt>
      <trkpt lat="45.83105" lon="4.71523">
        <ele>279.68326</ele>
        <time>2022-07-23T19:02:08.000Z</time>
      </trkpt>
      <trkpt lat="45.83102" lon="4.71523">
        <ele>279.31769</ele>
        <time>2022-07-23T19:02:09.000Z</time>
      </trkpt>
      <trkpt lat="45.831" lon="4.71522">
        <ele>279.06182</ele>
        <time>2022-07-23T19:02:10.000Z</time>
      </trkpt>
      <trkpt lat="45.83093" lon="4.71515">
        <ele>279.01417</ele>
        <time>2022-07-23T19:02:11.000Z</time>
      </trkpt>
      <trkpt lat="45.8309" lon="4.71514">
        <ele>278.90389</ele>
        <time>2022-07-23T19:02:12.000Z</time>
      </trkpt>
      <trkpt lat="45.83084" lon="4.71509">
        <ele>278.7431</ele>
        <time>2022-07-23T19:02:13.000Z</time>
      </trkpt>
      <trkpt lat="45.83078" lon="4.71508">
        <ele>278.28938</ele>
        <time>2022-07-23T19:02:14.000Z</time>
      </trkpt>
      <trkpt lat="45.83072" lon="4.71506">
        <ele>278.03233</ele>
        <time>2022-07-23T19:02:15.000Z</time>
      </trkpt>
      <trkpt lat="45.8307" lon="4.71505">
        <ele>277.94069</ele>
        <time>2022-07-23T19:02:16.000Z</time>
      </trkpt>
      <trkpt lat="45.8307" lon="4.71503">
        <ele>278.1431</ele>
        <time>2022-07-23T19:02:17.000Z</time>
      </trkpt>
      <trkpt lat="45.83067" lon="4.71501">
        <ele>278.02001</ele>
        <time>2022-07-23T19:02:18.000Z</time>
      </trkpt>
      <trkpt lat="45.8306" lon="4.715">
        <ele>277.66734</ele>
        <time>2022-07-23T19:02:19.000Z</time>
      </trkpt>
      <trkpt lat="45.83059" lon="4.71499">
        <ele>277.58835</ele>
        <time>2022-07-23T19:02:20.000Z</time>
      </trkpt>
      <trkpt lat="45.83052" lon="4.71499">
        <ele>277.2846</ele>
        <time>2022-07-23T19:02:22.000Z</time>
      </trkpt>
      <trkpt lat="45.83047" lon="4.71497">
        <ele>277.06784</ele>
        <time>2022-07-23T19:02:23.000Z</time>
      </trkpt>
      <trkpt lat="45.83044" lon="4.71498">
        <ele>276.93721</ele>
        <time>2022-07-23T19:02:25.000Z</time>
      </trkpt>
      <trkpt lat="45.83046" lon="4.71501">
        <ele>276.91331</ele>
        <time>2022-07-23T19:02:26.000Z</time>
      </trkpt>
      <trkpt lat="45.83047" lon="4.71503">
        <ele>276.93492</ele>
        <time>2022-07-23T19:02:27.000Z</time>
      </trkpt>
      <trkpt lat="45.8305" lon="4.71505">
        <ele>277.01614</ele>
        <time>2022-07-23T19:02:29.000Z</time>
      </trkpt>
      <trkpt lat="45.83052" lon="4.71505">
        <ele>277.07567</ele>
        <time>2022-07-23T19:02:30.000Z</time>
      </trkpt>
      <trkpt lat="45.83054" lon="4.71506">
        <ele>277.12975</ele>
        <time>2022-07-23T19:02:31.000Z</time>
      </trkpt>
      <trkpt lat="45.83057" lon="4.71508">
        <ele>277.16256</ele>
        <time>2022-07-23T19:02:32.000Z</time>
      </trkpt>
      <trkpt lat="45.83059" lon="4.7151">
        <ele>277.17075</ele>
        <time>2022-07-23T19:02:33.000Z</time>
      </trkpt>
      <trkpt lat="45.83063" lon="4.71513">
        <ele>277.16691</ele>
        <time>2022-07-23T19:02:34.000Z</time>
      </trkpt>
      <trkpt lat="45.83067" lon="4.71516">
        <ele>277.16354</ele>
        <time>2022-07-23T19:02:35.000Z</time>
      </trkpt>
      <trkpt lat="45.83072" lon="4.71517">
        <ele>277.186</ele>
        <time>2022-07-23T19:02:36.000Z</time>
      </trkpt>
      <trkpt lat="45.83107" lon="4.71542">
        <ele>279.07097</ele>
        <time>2022-07-23T19:02:43.000Z</time>
      </trkpt>
      <trkpt lat="45.83112" lon="4.71545">
        <ele>279.69491</ele>
        <time>2022-07-23T19:02:44.000Z</time>
      </trkpt>
      <trkpt lat="45.83119" lon="4.71548">
        <ele>280.47547</ele>
        <time>2022-07-23T19:02:45.000Z</time>
      </trkpt>
      <trkpt lat="45.83124" lon="4.71549">
        <ele>280.93725</ele>
        <time>2022-07-23T19:02:46.000Z</time>
      </trkpt>
      <trkpt lat="45.83129" lon="4.71553">
        <ele>281.34101</ele>
        <time>2022-07-23T19:02:47.000Z</time>
      </trkpt>
      <trkpt lat="45.83136" lon="4.71558">
        <ele>281.89827</ele>
        <time>2022-07-23T19:02:48.000Z</time>
      </trkpt>
      <trkpt lat="45.83143" lon="4.71562">
        <ele>282.61654</ele>
        <time>2022-07-23T19:02:49.000Z</time>
      </trkpt>
      <trkpt lat="45.83147" lon="4.71564">
        <ele>283.05197</ele>
        <time>2022-07-23T19:02:50.000Z</time>
      </trkpt>
      <trkpt lat="45.83154" lon="4.71571">
        <ele>283.70433</ele>
        <time>2022-07-23T19:02:51.000Z</time>
      </trkpt>
      <trkpt lat="45.83161" lon="4.71573">
        <ele>284.36009</ele>
        <time>2022-07-23T19:02:52.000Z</time>
      </trkpt>
      <trkpt lat="45.83167" lon="4.71575">
        <ele>284.9233</ele>
        <time>2022-07-23T19:02:53.000Z</time>
      </trkpt>
      <trkpt lat="45.83171" lon="4.71577">
        <ele>285.28575</ele>
        <time>2022-07-23T19:02:54.000Z</time>
      </trkpt>
      <trkpt lat="45.83175" lon="4.71578">
        <ele>285.72716</ele>
        <time>2022-07-23T19:02:55.000Z</time>
      </trkpt>
      <trkpt lat="45.83181" lon="4.7158">
        <ele>286.16588</ele>
        <time>2022-07-23T19:02:56.000Z</time>
      </trkpt>
      <trkpt lat="45.83188" lon="4.71583">
        <ele>286.62965</ele>
        <time>2022-07-23T19:02:57.000Z</time>
      </trkpt>
      <trkpt lat="45.83191" lon="4.71585">
        <ele>286.74869</ele>
        <time>2022-07-23T19:02:58.000Z</time>
      </trkpt>
      <trkpt lat="45.83197" lon="4.71589">
        <ele>286.95951</ele>
        <time>2022-07-23T19:02:59.000Z</time>
      </trkpt>
      <trkpt lat="45.83203" lon="4.71595">
        <ele>286.934</ele>
        <time>2022-07-23T19:03:00.000Z</time>
      </trkpt>
      <trkpt lat="45.83208" lon="4.71594">
        <ele>287.28132</ele>
        <time>2022-07-23T19:03:01.000Z</time>
      </trkpt>
      <trkpt lat="45.83215" lon="4.71597">
        <ele>287.3592</ele>
        <time>2022-07-23T19:03:02.000Z</time>
      </trkpt>
      <trkpt lat="45.83221" lon="4.71601">
        <ele>287.25943</ele>
        <time>2022-07-23T19:03:03.000Z</time>
      </trkpt>
      <trkpt lat="45.83228" lon="4.71606">
        <ele>287.06595</ele>
        <time>2022-07-23T19:03:04.000Z</time>
      </trkpt>
      <trkpt lat="45.83234" lon="4.71609">
        <ele>286.98061</ele>
        <time>2022-07-23T19:03:05.000Z</time>
      </trkpt>
      <trkpt lat="45.83238" lon="4.71611">
        <ele>286.90835</ele>
        <time>2022-07-23T19:03:06.000Z</time>
      </trkpt>
      <trkpt lat="45.83243" lon="4.71615">
        <ele>286.72143</ele>
        <time>2022-07-23T19:03:07.000Z</time>
      </trkpt>
      <trkpt lat="45.83251" lon="4.71619">
        <ele>286.46351</ele>
        <time>2022-07-23T19:03:08.000Z</time>
      </trkpt>
      <trkpt lat="45.83257" lon="4.7162">
        <ele>286.4266</ele>
        <time>2022-07-23T19:03:09.000Z</time>
      </trkpt>
      <trkpt lat="45.83263" lon="4.71621">
        <ele>286.33246</ele>
        <time>2022-07-23T19:03:10.000Z</time>
      </trkpt>
      <trkpt lat="45.83269" lon="4.71624">
        <ele>286.12991</ele>
        <time>2022-07-23T19:03:11.000Z</time>
      </trkpt>
      <trkpt lat="45.83275" lon="4.71627">
        <ele>285.91003</ele>
        <time>2022-07-23T19:03:12.000Z</time>
      </trkpt>
      <trkpt lat="45.83281" lon="4.71628">
        <ele>285.79944</ele>
        <time>2022-07-23T19:03:13.000Z</time>
      </trkpt>
      <trkpt lat="45.83287" lon="4.7163">
        <ele>285.58712</ele>
        <time>2022-07-23T19:03:14.000Z</time>
      </trkpt>
      <trkpt lat="45.83293" lon="4.7163">
        <ele>285.50642</ele>
        <time>2022-07-23T19:03:15.000Z</time>
      </trkpt>
      <trkpt lat="45.83299" lon="4.71632">
        <ele>285.11402</ele>
        <time>2022-07-23T19:03:16.000Z</time>
      </trkpt>
      <trkpt lat="45.83305" lon="4.71634">
        <ele>284.59445</ele>
        <time>2022-07-23T19:03:17.000Z</time>
      </trkpt>
      <trkpt lat="45.8331" lon="4.71633">
        <ele>284.34683</ele>
        <time>2022-07-23T19:03:18.000Z</time>
      </trkpt>
      <trkpt lat="45.83316" lon="4.71634">
        <ele>283.82659</ele>
        <time>2022-07-23T19:03:19.000Z</time>
      </trkpt>
      <trkpt lat="45.83322" lon="4.71635">
        <ele>283.34725</ele>
        <time>2022-07-23T19:03:20.000Z</time>
      </trkpt>
      <trkpt lat="45.83325" lon="4.71635">
        <ele>283.08417</ele>
        <time>2022-07-23T19:03:21.000Z</time>
      </trkpt>
      <trkpt lat="45.8333" lon="4.71635">
        <ele>282.63971</ele>
        <time>2022-07-23T19:03:22.000Z</time>
      </trkpt>
      <trkpt lat="45.83334" lon="4.71635">
        <ele>282.31946</ele>
        <time>2022-07-23T19:03:23.000Z</time>
      </trkpt>
      <trkpt lat="45.83337" lon="4.71634">
        <ele>282.14332</ele>
        <time>2022-07-23T19:03:24.000Z</time>
      </trkpt>
      <trkpt lat="45.83343" lon="4.71632">
        <ele>281.82725</ele>
        <time>2022-07-23T19:03:26.000Z</time>
      </trkpt>
      <trkpt lat="45.83345" lon="4.7163">
        <ele>281.75986</ele>
        <time>2022-07-23T19:03:27.000Z</time>
      </trkpt>
      <trkpt lat="45.83348" lon="4.71627">
        <ele>281.78952</ele>
        <time>2022-07-23T19:03:28.000Z</time>
      </trkpt>
      <trkpt lat="45.83352" lon="4.71623">
        <ele>281.84093</ele>
        <time>2022-07-23T19:03:29.000Z</time>
      </trkpt>
      <trkpt lat="45.83355" lon="4.71618">
        <ele>281.97944</ele>
        <time>2022-07-23T19:03:30.000Z</time>
      </trkpt>
      <trkpt lat="45.83358" lon="4.71612">
        <ele>282.14234</ele>
        <time>2022-07-23T19:03:31.000Z</time>
      </trkpt>
      <trkpt lat="45.83361" lon="4.71606">
        <ele>282.24319</ele>
        <time>2022-07-23T19:03:32.000Z</time>
      </trkpt>
      <trkpt lat="45.83362" lon="4.716">
        <ele>282.40556</ele>
        <time>2022-07-23T19:03:33.000Z</time>
      </trkpt>
      <trkpt lat="45.83385" lon="4.71557">
        <ele>281.53327</ele>
        <time>2022-07-23T19:03:39.000Z</time>
      </trkpt>
      <trkpt lat="45.83391" lon="4.71553">
        <ele>282.4939</ele>
        <time>2022-07-23T19:03:40.000Z</time>
      </trkpt>
      <trkpt lat="45.83396" lon="4.71552">
        <ele>283.11846</ele>
        <time>2022-07-23T19:03:41.000Z</time>
      </trkpt>
      <trkpt lat="45.83401" lon="4.71556">
        <ele>282.8763</ele>
        <time>2022-07-23T19:03:42.000Z</time>
      </trkpt>
      <trkpt lat="45.83406" lon="4.7156">
        <ele>282.98394</ele>
        <time>2022-07-23T19:03:43.000Z</time>
      </trkpt>
      <trkpt lat="45.83412" lon="4.71566">
        <ele>282.97066</ele>
        <time>2022-07-23T19:03:44.000Z</time>
      </trkpt>
      <trkpt lat="45.83416" lon="4.71571">
        <ele>283.01703</ele>
        <time>2022-07-23T19:03:45.000Z</time>
      </trkpt>
      <trkpt lat="45.83421" lon="4.71574">
        <ele>283.57612</ele>
        <time>2022-07-23T19:03:46.000Z</time>
      </trkpt>
      <trkpt lat="45.83424" lon="4.71579">
        <ele>283.63705</ele>
        <time>2022-07-23T19:03:47.000Z</time>
      </trkpt>
      <trkpt lat="45.83428" lon="4.71584">
        <ele>283.67506</ele>
        <time>2022-07-23T19:03:48.000Z</time>
      </trkpt>
      <trkpt lat="45.83432" lon="4.71591">
        <ele>283.57963</ele>
        <time>2022-07-23T19:03:49.000Z</time>
      </trkpt>
      <trkpt lat="45.83437" lon="4.71594">
        <ele>283.98466</ele>
        <time>2022-07-23T19:03:50.000Z</time>
      </trkpt>
      <trkpt lat="45.83441" lon="4.71596">
        <ele>284.32562</ele>
        <time>2022-07-23T19:03:51.000Z</time>
      </trkpt>
      <trkpt lat="45.83445" lon="4.71601">
        <ele>284.3724</ele>
        <time>2022-07-23T19:03:52.000Z</time>
      </trkpt>
      <trkpt lat="45.83449" lon="4.71604">
        <ele>284.32004</ele>
        <time>2022-07-23T19:03:53.000Z</time>
      </trkpt>
      <trkpt lat="45.83454" lon="4.71604">
        <ele>284.68061</ele>
        <time>2022-07-23T19:03:54.000Z</time>
      </trkpt>
      <trkpt lat="45.83458" lon="4.71603">
        <ele>284.94794</ele>
        <time>2022-07-23T19:03:55.000Z</time>
      </trkpt>
      <trkpt lat="45.83463" lon="4.71605">
        <ele>284.49848</ele>
        <time>2022-07-23T19:03:56.000Z</time>
      </trkpt>
      <trkpt lat="45.83467" lon="4.71602">
        <ele>284.84079</ele>
        <time>2022-07-23T19:03:57.000Z</time>
      </trkpt>
      <trkpt lat="45.8347" lon="4.71601">
        <ele>284.86015</ele>
        <time>2022-07-23T19:03:58.000Z</time>
      </trkpt>
      <trkpt lat="45.83474" lon="4.71599">
        <ele>284.95985</ele>
        <time>2022-07-23T19:03:59.000Z</time>
      </trkpt>
      <trkpt lat="45.83476" lon="4.71598">
        <ele>284.84873</ele>
        <time>2022-07-23T19:04:00.000Z</time>
      </trkpt>
      <trkpt lat="45.8348" lon="4.71596">
        <ele>284.81885</ele>
        <time>2022-07-23T19:04:01.000Z</time>
      </trkpt>
      <trkpt lat="45.83483" lon="4.71594">
        <ele>284.64602</ele>
        <time>2022-07-23T19:04:02.000Z</time>
      </trkpt>
      <trkpt lat="45.83485" lon="4.71593">
        <ele>284.47136</ele>
        <time>2022-07-23T19:04:03.000Z</time>
      </trkpt>
      <trkpt lat="45.83487" lon="4.71589">
        <ele>284.82451</ele>
        <time>2022-07-23T19:04:04.000Z</time>
      </trkpt>
      <trkpt lat="45.8349" lon="4.71587">
        <ele>284.7034</ele>
        <time>2022-07-23T19:04:05.000Z</time>
      </trkpt>
      <trkpt lat="45.83492" lon="4.71585">
        <ele>284.64467</ele>
        <time>2022-07-23T19:04:06.000Z</time>
      </trkpt>
      <trkpt lat="45.83494" lon="4.71583">
        <ele>284.59113</ele>
        <time>2022-07-23T19:04:07.000Z</time>
      </trkpt>
      <trkpt lat="45.83497" lon="4.71581">
        <ele>284.50483</ele>
        <time>2022-07-23T19:04:08.000Z</time>
      </trkpt>
      <trkpt lat="45.83499" lon="4.7158">
        <ele>284.42823</ele>
        <time>2022-07-23T19:04:09.000Z</time>
      </trkpt>
      <trkpt lat="45.83501" lon="4.71579">
        <ele>284.30178</ele>
        <time>2022-07-23T19:04:10.000Z</time>
      </trkpt>
      <trkpt lat="45.83503" lon="4.71578">
        <ele>284.16171</ele>
        <time>2022-07-23T19:04:11.000Z</time>
      </trkpt>
      <trkpt lat="45.83506" lon="4.71576">
        <ele>284.07166</ele>
        <time>2022-07-23T19:04:12.000Z</time>
      </trkpt>
      <trkpt lat="45.83508" lon="4.71574">
        <ele>283.96839</ele>
        <time>2022-07-23T19:04:13.000Z</time>
      </trkpt>
      <trkpt lat="45.83511" lon="4.71572">
        <ele>283.92818</ele>
        <time>2022-07-23T19:04:14.000Z</time>
      </trkpt>
      <trkpt lat="45.83513" lon="4.71569">
        <ele>284.01049</ele>
        <time>2022-07-23T19:04:15.000Z</time>
      </trkpt>
      <trkpt lat="45.83516" lon="4.71567">
        <ele>284.11292</ele>
        <time>2022-07-23T19:04:16.000Z</time>
      </trkpt>
      <trkpt lat="45.8352" lon="4.71564">
        <ele>284.35426</ele>
        <time>2022-07-23T19:04:17.000Z</time>
      </trkpt>
      <trkpt lat="45.83523" lon="4.71561">
        <ele>284.69668</ele>
        <time>2022-07-23T19:04:18.000Z</time>
      </trkpt>
      <trkpt lat="45.83526" lon="4.71558">
        <ele>285.04496</ele>
        <time>2022-07-23T19:04:19.000Z</time>
      </trkpt>
      <trkpt lat="45.83529" lon="4.71556">
        <ele>285.38169</ele>
        <time>2022-07-23T19:04:20.000Z</time>
      </trkpt>
      <trkpt lat="45.83532" lon="4.71553">
        <ele>285.62199</ele>
        <time>2022-07-23T19:04:21.000Z</time>
      </trkpt>
      <trkpt lat="45.83534" lon="4.71552">
        <ele>285.77341</ele>
        <time>2022-07-23T19:04:22.000Z</time>
      </trkpt>
      <trkpt lat="45.83536" lon="4.7155">
        <ele>285.92711</ele>
        <time>2022-07-23T19:04:23.000Z</time>
      </trkpt>
      <trkpt lat="45.83539" lon="4.71548">
        <ele>286.08501</ele>
        <time>2022-07-23T19:04:24.000Z</time>
      </trkpt>
      <trkpt lat="45.83541" lon="4.71547">
        <ele>286.23659</ele>
        <time>2022-07-23T19:04:25.000Z</time>
      </trkpt>
      <trkpt lat="45.83543" lon="4.71545">
        <ele>286.35795</ele>
        <time>2022-07-23T19:04:26.000Z</time>
      </trkpt>
      <trkpt lat="45.83546" lon="4.71543">
        <ele>286.47172</ele>
        <time>2022-07-23T19:04:28.000Z</time>
      </trkpt>
      <trkpt lat="45.83548" lon="4.71541">
        <ele>286.53391</ele>
        <time>2022-07-23T19:04:29.000Z</time>
      </trkpt>
      <trkpt lat="45.8355" lon="4.7154">
        <ele>286.58057</ele>
        <time>2022-07-23T19:04:30.000Z</time>
      </trkpt>
      <trkpt lat="45.83552" lon="4.71538">
        <ele>286.64343</ele>
        <time>2022-07-23T19:04:31.000Z</time>
      </trkpt>
      <trkpt lat="45.83554" lon="4.71537">
        <ele>286.75041</ele>
        <time>2022-07-23T19:04:32.000Z</time>
      </trkpt>
      <trkpt lat="45.83555" lon="4.71535">
        <ele>286.85454</ele>
        <time>2022-07-23T19:04:33.000Z</time>
      </trkpt>
      <trkpt lat="45.83558" lon="4.71532">
        <ele>286.95126</ele>
        <time>2022-07-23T19:04:34.000Z</time>
      </trkpt>
      <trkpt lat="45.8356" lon="4.7153">
        <ele>286.99934</ele>
        <time>2022-07-23T19:04:35.000Z</time>
      </trkpt>
      <trkpt lat="45.83564" lon="4.71527">
        <ele>287.01157</ele>
        <time>2022-07-23T19:04:36.000Z</time>
      </trkpt>
      <trkpt lat="45.83568" lon="4.71524">
        <ele>287.09184</ele>
        <time>2022-07-23T19:04:37.000Z</time>
      </trkpt>
      <trkpt lat="45.83571" lon="4.71522">
        <ele>287.26265</ele>
        <time>2022-07-23T19:04:38.000Z</time>
      </trkpt>
      <trkpt lat="45.83574" lon="4.71518">
        <ele>287.61909</ele>
        <time>2022-07-23T19:04:39.000Z</time>
      </trkpt>
      <trkpt lat="45.83576" lon="4.71514">
        <ele>288.09447</ele>
        <time>2022-07-23T19:04:40.000Z</time>
      </trkpt>
      <trkpt lat="45.83577" lon="4.7151">
        <ele>288.50919</ele>
        <time>2022-07-23T19:04:41.000Z</time>
      </trkpt>
      <trkpt lat="45.83575" lon="4.71506">
        <ele>288.96211</ele>
        <time>2022-07-23T19:04:43.000Z</time>
      </trkpt>
      <trkpt lat="45.83573" lon="4.71505">
        <ele>289.0924</ele>
        <time>2022-07-23T19:04:44.000Z</time>
      </trkpt>
      <trkpt lat="45.8357" lon="4.71505">
        <ele>289.16492</ele>
        <time>2022-07-23T19:04:45.000Z</time>
      </trkpt>
      <trkpt lat="45.83567" lon="4.71506">
        <ele>289.19588</ele>
        <time>2022-07-23T19:04:46.000Z</time>
      </trkpt>
      <trkpt lat="45.83555" lon="4.71508">
        <ele>289.57477</ele>
        <time>2022-07-23T19:04:47.000Z</time>
      </trkpt>
      <trkpt lat="45.83551" lon="4.71506">
        <ele>289.90911</ele>
        <time>2022-07-23T19:04:48.000Z</time>
      </trkpt>
      <trkpt lat="45.83545" lon="4.71507">
        <ele>290.00172</ele>
        <time>2022-07-23T19:04:49.000Z</time>
      </trkpt>
      <trkpt lat="45.8354" lon="4.71504">
        <ele>290.3485</ele>
        <time>2022-07-23T19:04:50.000Z</time>
      </trkpt>
      <trkpt lat="45.83536" lon="4.71502">
        <ele>290.56202</ele>
        <time>2022-07-23T19:04:51.000Z</time>
      </trkpt>
      <trkpt lat="45.83531" lon="4.71502">
        <ele>290.64207</ele>
        <time>2022-07-23T19:04:52.000Z</time>
      </trkpt>
      <trkpt lat="45.83526" lon="4.71502">
        <ele>290.74279</ele>
        <time>2022-07-23T19:04:53.000Z</time>
      </trkpt>
      <trkpt lat="45.83521" lon="4.71501">
        <ele>290.96095</ele>
        <time>2022-07-23T19:04:54.000Z</time>
      </trkpt>
      <trkpt lat="45.83513" lon="4.71499">
        <ele>291.30492</ele>
        <time>2022-07-23T19:04:55.000Z</time>
      </trkpt>
      <trkpt lat="45.83509" lon="4.715">
        <ele>291.38622</ele>
        <time>2022-07-23T19:04:56.000Z</time>
      </trkpt>
      <trkpt lat="45.83503" lon="4.71499">
        <ele>291.60271</ele>
        <time>2022-07-23T19:04:57.000Z</time>
      </trkpt>
      <trkpt lat="45.83498" lon="4.71501">
        <ele>291.55939</ele>
        <time>2022-07-23T19:04:58.000Z</time>
      </trkpt>
      <trkpt lat="45.83489" lon="4.71499">
        <ele>291.66612</ele>
        <time>2022-07-23T19:04:59.000Z</time>
      </trkpt>
      <trkpt lat="45.83482" lon="4.71496">
        <ele>291.84575</ele>
        <time>2022-07-23T19:05:00.000Z</time>
      </trkpt>
      <trkpt lat="45.83479" lon="4.71494">
        <ele>291.96585</ele>
        <time>2022-07-23T19:05:01.000Z</time>
      </trkpt>
      <trkpt lat="45.83472" lon="4.71491">
        <ele>292.26895</ele>
        <time>2022-07-23T19:05:02.000Z</time>
      </trkpt>
      <trkpt lat="45.83467" lon="4.71488">
        <ele>292.48034</ele>
        <time>2022-07-23T19:05:03.000Z</time>
      </trkpt>
      <trkpt lat="45.83463" lon="4.71485">
        <ele>292.65304</ele>
        <time>2022-07-23T19:05:04.000Z</time>
      </trkpt>
      <trkpt lat="45.83459" lon="4.71483">
        <ele>292.75655</ele>
        <time>2022-07-23T19:05:05.000Z</time>
      </trkpt>
      <trkpt lat="45.83451" lon="4.71478">
        <ele>292.86229</ele>
        <time>2022-07-23T19:05:06.000Z</time>
      </trkpt>
      <trkpt lat="45.83445" lon="4.71476">
        <ele>292.79233</ele>
        <time>2022-07-23T19:05:07.000Z</time>
      </trkpt>
      <trkpt lat="45.8344" lon="4.71474">
        <ele>292.76235</ele>
        <time>2022-07-23T19:05:08.000Z</time>
      </trkpt>
      <trkpt lat="45.83432" lon="4.71471">
        <ele>292.66737</ele>
        <time>2022-07-23T19:05:09.000Z</time>
      </trkpt>
      <trkpt lat="45.83426" lon="4.71465">
        <ele>292.84786</ele>
        <time>2022-07-23T19:05:10.000Z</time>
      </trkpt>
      <trkpt lat="45.83421" lon="4.7146">
        <ele>292.98648</ele>
        <time>2022-07-23T19:05:11.000Z</time>
      </trkpt>
      <trkpt lat="45.83412" lon="4.71453">
        <ele>293.14468</ele>
        <time>2022-07-23T19:05:12.000Z</time>
      </trkpt>
      <trkpt lat="45.83408" lon="4.71447">
        <ele>293.32018</ele>
        <time>2022-07-23T19:05:13.000Z</time>
      </trkpt>
      <trkpt lat="45.83407" lon="4.7144">
        <ele>293.66801</ele>
        <time>2022-07-23T19:05:14.000Z</time>
      </trkpt>
      <trkpt lat="45.83401" lon="4.71434">
        <ele>293.76576</ele>
        <time>2022-07-23T19:05:15.000Z</time>
      </trkpt>
      <trkpt lat="45.83397" lon="4.71428">
        <ele>293.83571</ele>
        <time>2022-07-23T19:05:16.000Z</time>
      </trkpt>
      <trkpt lat="45.83394" lon="4.71422">
        <ele>293.99169</ele>
        <time>2022-07-23T19:05:17.000Z</time>
      </trkpt>
      <trkpt lat="45.8339" lon="4.71416">
        <ele>294.08488</ele>
        <time>2022-07-23T19:05:18.000Z</time>
      </trkpt>
      <trkpt lat="45.83388" lon="4.71412">
        <ele>294.21708</ele>
        <time>2022-07-23T19:05:19.000Z</time>
      </trkpt>
      <trkpt lat="45.83384" lon="4.71407">
        <ele>294.34775</ele>
        <time>2022-07-23T19:05:20.000Z</time>
      </trkpt>
      <trkpt lat="45.8338" lon="4.71401">
        <ele>294.54663</ele>
        <time>2022-07-23T19:05:21.000Z</time>
      </trkpt>
      <trkpt lat="45.83377" lon="4.71395">
        <ele>294.65199</ele>
        <time>2022-07-23T19:05:22.000Z</time>
      </trkpt>
      <trkpt lat="45.83373" lon="4.71389">
        <ele>294.71528</ele>
        <time>2022-07-23T19:05:23.000Z</time>
      </trkpt>
      <trkpt lat="45.83371" lon="4.71384">
        <ele>294.79467</ele>
        <time>2022-07-23T19:05:24.000Z</time>
      </trkpt>
      <trkpt lat="45.83369" lon="4.7138">
        <ele>294.85546</ele>
        <time>2022-07-23T19:05:25.000Z</time>
      </trkpt>
      <trkpt lat="45.83365" lon="4.71375">
        <ele>294.92297</ele>
        <time>2022-07-23T19:05:26.000Z</time>
      </trkpt>
      <trkpt lat="45.83362" lon="4.71369">
        <ele>295.01314</ele>
        <time>2022-07-23T19:05:27.000Z</time>
      </trkpt>
      <trkpt lat="45.83356" lon="4.71362">
        <ele>294.98879</ele>
        <time>2022-07-23T19:05:28.000Z</time>
      </trkpt>
      <trkpt lat="45.83351" lon="4.71354">
        <ele>295.00832</ele>
        <time>2022-07-23T19:05:29.000Z</time>
      </trkpt>
      <trkpt lat="45.83347" lon="4.71348">
        <ele>295.03601</ele>
        <time>2022-07-23T19:05:30.000Z</time>
      </trkpt>
      <trkpt lat="45.83344" lon="4.7134">
        <ele>295.29557</ele>
        <time>2022-07-23T19:05:31.000Z</time>
      </trkpt>
      <trkpt lat="45.83339" lon="4.71333">
        <ele>295.45136</ele>
        <time>2022-07-23T19:05:32.000Z</time>
      </trkpt>
      <trkpt lat="45.83335" lon="4.71327">
        <ele>295.61514</ele>
        <time>2022-07-23T19:05:33.000Z</time>
      </trkpt>
      <trkpt lat="45.83332" lon="4.71321">
        <ele>295.70993</ele>
        <time>2022-07-23T19:05:34.000Z</time>
      </trkpt>
      <trkpt lat="45.83328" lon="4.71316">
        <ele>295.79044</ele>
        <time>2022-07-23T19:05:35.000Z</time>
      </trkpt>
      <trkpt lat="45.83322" lon="4.71308">
        <ele>295.97225</ele>
        <time>2022-07-23T19:05:36.000Z</time>
      </trkpt>
      <trkpt lat="45.8332" lon="4.71301">
        <ele>296.28538</ele>
        <time>2022-07-23T19:05:37.000Z</time>
      </trkpt>
      <trkpt lat="45.83313" lon="4.71296">
        <ele>296.28976</ele>
        <time>2022-07-23T19:05:38.000Z</time>
      </trkpt>
      <trkpt lat="45.83309" lon="4.7129">
        <ele>296.41483</ele>
        <time>2022-07-23T19:05:39.000Z</time>
      </trkpt>
      <trkpt lat="45.83306" lon="4.71283">
        <ele>296.60057</ele>
        <time>2022-07-23T19:05:40.000Z</time>
      </trkpt>
      <trkpt lat="45.83304" lon="4.71276">
        <ele>296.8546</ele>
        <time>2022-07-23T19:05:41.000Z</time>
      </trkpt>
      <trkpt lat="45.83302" lon="4.71268">
        <ele>297.16768</ele>
        <time>2022-07-23T19:05:42.000Z</time>
      </trkpt>
      <trkpt lat="45.83299" lon="4.7126">
        <ele>297.46315</ele>
        <time>2022-07-23T19:05:43.000Z</time>
      </trkpt>
      <trkpt lat="45.83296" lon="4.71253">
        <ele>297.77126</ele>
        <time>2022-07-23T19:05:44.000Z</time>
      </trkpt>
      <trkpt lat="45.83292" lon="4.71244">
        <ele>298.08005</ele>
        <time>2022-07-23T19:05:45.000Z</time>
      </trkpt>
      <trkpt lat="45.8329" lon="4.71235">
        <ele>298.4449</ele>
        <time>2022-07-23T19:05:46.000Z</time>
      </trkpt>
      <trkpt lat="45.83289" lon="4.71226">
        <ele>298.80054</ele>
        <time>2022-07-23T19:05:47.000Z</time>
      </trkpt>
      <trkpt lat="45.83286" lon="4.7122">
        <ele>299.01095</ele>
        <time>2022-07-23T19:05:48.000Z</time>
      </trkpt>
      <trkpt lat="45.83282" lon="4.7121">
        <ele>299.36241</ele>
        <time>2022-07-23T19:05:49.000Z</time>
      </trkpt>
      <trkpt lat="45.83283" lon="4.71201">
        <ele>299.63987</ele>
        <time>2022-07-23T19:05:50.000Z</time>
      </trkpt>
      <trkpt lat="45.83281" lon="4.71193">
        <ele>299.91582</ele>
        <time>2022-07-23T19:05:51.000Z</time>
      </trkpt>
      <trkpt lat="45.83282" lon="4.71184">
        <ele>300.13439</ele>
        <time>2022-07-23T19:05:52.000Z</time>
      </trkpt>
      <trkpt lat="45.8328" lon="4.71176">
        <ele>300.38877</ele>
        <time>2022-07-23T19:05:53.000Z</time>
      </trkpt>
      <trkpt lat="45.8328" lon="4.71167">
        <ele>300.60089</ele>
        <time>2022-07-23T19:05:54.000Z</time>
      </trkpt>
      <trkpt lat="45.83278" lon="4.7116">
        <ele>300.81924</ele>
        <time>2022-07-23T19:05:55.000Z</time>
      </trkpt>
      <trkpt lat="45.83277" lon="4.71151">
        <ele>301.11025</ele>
        <time>2022-07-23T19:05:56.000Z</time>
      </trkpt>
      <trkpt lat="45.83275" lon="4.71145">
        <ele>301.45748</ele>
        <time>2022-07-23T19:05:57.000Z</time>
      </trkpt>
      <trkpt lat="45.83273" lon="4.71139">
        <ele>301.76125</ele>
        <time>2022-07-23T19:05:58.000Z</time>
      </trkpt>
      <trkpt lat="45.83273" lon="4.71133">
        <ele>302.04425</ele>
        <time>2022-07-23T19:05:59.000Z</time>
      </trkpt>
      <trkpt lat="45.83271" lon="4.71124">
        <ele>302.52619</ele>
        <time>2022-07-23T19:06:00.000Z</time>
      </trkpt>
      <trkpt lat="45.83273" lon="4.71115">
        <ele>302.60878</ele>
        <time>2022-07-23T19:06:01.000Z</time>
      </trkpt>
      <trkpt lat="45.83274" lon="4.71105">
        <ele>302.91519</ele>
        <time>2022-07-23T19:06:02.000Z</time>
      </trkpt>
      <trkpt lat="45.83276" lon="4.71099">
        <ele>303.01255</ele>
        <time>2022-07-23T19:06:03.000Z</time>
      </trkpt>
      <trkpt lat="45.83277" lon="4.71094">
        <ele>303.1481</ele>
        <time>2022-07-23T19:06:04.000Z</time>
      </trkpt>
      <trkpt lat="45.8328" lon="4.71086">
        <ele>303.30834</ele>
        <time>2022-07-23T19:06:05.000Z</time>
      </trkpt>
      <trkpt lat="45.83282" lon="4.71078">
        <ele>303.5248</ele>
        <time>2022-07-23T19:06:06.000Z</time>
      </trkpt>
      <trkpt lat="45.83284" lon="4.71071">
        <ele>303.74395</ele>
        <time>2022-07-23T19:06:07.000Z</time>
      </trkpt>
      <trkpt lat="45.83287" lon="4.71065">
        <ele>303.99362</ele>
        <time>2022-07-23T19:06:08.000Z</time>
      </trkpt>
      <trkpt lat="45.83289" lon="4.71056">
        <ele>304.33322</ele>
        <time>2022-07-23T19:06:09.000Z</time>
      </trkpt>
      <trkpt lat="45.8329" lon="4.71051">
        <ele>304.5337</ele>
        <time>2022-07-23T19:06:10.000Z</time>
      </trkpt>
      <trkpt lat="45.83291" lon="4.71043">
        <ele>304.80876</ele>
        <time>2022-07-23T19:06:11.000Z</time>
      </trkpt>
      <trkpt lat="45.83292" lon="4.71035">
        <ele>305.03604</ele>
        <time>2022-07-23T19:06:12.000Z</time>
      </trkpt>
      <trkpt lat="45.83294" lon="4.7103">
        <ele>305.12514</ele>
        <time>2022-07-23T19:06:13.000Z</time>
      </trkpt>
      <trkpt lat="45.83297" lon="4.71024">
        <ele>305.1466</ele>
        <time>2022-07-23T19:06:14.000Z</time>
      </trkpt>
      <trkpt lat="45.833" lon="4.71016">
        <ele>305.18222</ele>
        <time>2022-07-23T19:06:15.000Z</time>
      </trkpt>
      <trkpt lat="45.83302" lon="4.71009">
        <ele>305.1726</ele>
        <time>2022-07-23T19:06:16.000Z</time>
      </trkpt>
      <trkpt lat="45.83305" lon="4.71">
        <ele>305.13394</ele>
        <time>2022-07-23T19:06:17.000Z</time>
      </trkpt>
      <trkpt lat="45.83307" lon="4.70993">
        <ele>305.1755</ele>
        <time>2022-07-23T19:06:18.000Z</time>
      </trkpt>
      <trkpt lat="45.8331" lon="4.70985">
        <ele>305.28729</ele>
        <time>2022-07-23T19:06:19.000Z</time>
      </trkpt>
      <trkpt lat="45.83313" lon="4.70976">
        <ele>305.53081</ele>
        <time>2022-07-23T19:06:20.000Z</time>
      </trkpt>
      <trkpt lat="45.83313" lon="4.70971">
        <ele>305.72347</ele>
        <time>2022-07-23T19:06:21.000Z</time>
      </trkpt>
      <trkpt lat="45.83315" lon="4.70964">
        <ele>305.93339</ele>
        <time>2022-07-23T19:06:22.000Z</time>
      </trkpt>
      <trkpt lat="45.83317" lon="4.70957">
        <ele>306.11659</ele>
        <time>2022-07-23T19:06:23.000Z</time>
      </trkpt>
      <trkpt lat="45.83318" lon="4.70951">
        <ele>306.22498</ele>
        <time>2022-07-23T19:06:24.000Z</time>
      </trkpt>
      <trkpt lat="45.83319" lon="4.70944">
        <ele>306.351</ele>
        <time>2022-07-23T19:06:25.000Z</time>
      </trkpt>
      <trkpt lat="45.83321" lon="4.70938">
        <ele>306.41891</ele>
        <time>2022-07-23T19:06:26.000Z</time>
      </trkpt>
      <trkpt lat="45.83322" lon="4.70932">
        <ele>306.47993</ele>
        <time>2022-07-23T19:06:27.000Z</time>
      </trkpt>
      <trkpt lat="45.83322" lon="4.70929">
        <ele>306.53382</ele>
        <time>2022-07-23T19:06:28.000Z</time>
      </trkpt>
      <trkpt lat="45.83324" lon="4.70924">
        <ele>306.57474</ele>
        <time>2022-07-23T19:06:29.000Z</time>
      </trkpt>
      <trkpt lat="45.83325" lon="4.70919">
        <ele>306.59132</ele>
        <time>2022-07-23T19:06:31.000Z</time>
      </trkpt>
      <trkpt lat="45.83325" lon="4.70917">
        <ele>306.62692</ele>
        <time>2022-07-23T19:06:33.000Z</time>
      </trkpt>
      <trkpt lat="45.83323" lon="4.70915">
        <ele>306.71753</ele>
        <time>2022-07-23T19:06:35.000Z</time>
      </trkpt>
      <trkpt lat="45.83325" lon="4.70916">
        <ele>306.58329</ele>
        <time>2022-07-23T19:06:40.000Z</time>
      </trkpt>
      <trkpt lat="45.83323" lon="4.70914">
        <ele>306.78297</ele>
        <time>2022-07-23T19:06:45.000Z</time>
      </trkpt>
      <trkpt lat="45.8332" lon="4.70912">
        <ele>306.96186</ele>
        <time>2022-07-23T19:06:46.000Z</time>
      </trkpt>
      <trkpt lat="45.83318" lon="4.70912">
        <ele>307.11812</ele>
        <time>2022-07-23T19:06:47.000Z</time>
      </trkpt>
      <trkpt lat="45.83316" lon="4.7091">
        <ele>307.26367</ele>
        <time>2022-07-23T19:06:48.000Z</time>
      </trkpt>
      <trkpt lat="45.83314" lon="4.70908">
        <ele>307.40579</ele>
        <time>2022-07-23T19:06:51.000Z</time>
      </trkpt>
      <trkpt lat="45.83312" lon="4.70908">
        <ele>307.51833</ele>
        <time>2022-07-23T19:07:07.000Z</time>
      </trkpt>
    </trkseg>
  </trk>
</gpx>